Wetterdaten: Montag, 19.09.2022
Datum Zeit Temp. Aussen Temp. o. S. Temp +5cm Feuchte Auss Luftdruck Regen Sonnenschein Regendauer Solar Windben Empfang
19.09.2022 00:00 9,0 C 8,3 C 5,6 C 97 % 1016,8 hPa 0,0 l/m 0 min 0 min 0 W/m 6,4 km/h (2 Bft) 97,83 %
19.09.2022 00:02 9,0 C 8,3 C 5,6 C 97 % 1016,9 hPa 0,0 l/m 0 min 0 min 0 W/m 3,2 km/h (1 Bft) 7,14 %
19.09.2022 00:04 9,0 C 8,3 C 5,6 C 97 % 1016,8 hPa 0,0 l/m 0 min 0 min 0 W/m 16,1 km/h (3 Bft) 84,09 %
19.09.2022 00:08 8,9 C 8,3 C 5,6 C 97 % 1016,8 hPa 0,0 l/m 0 min 0 min 0 W/m 6,4 km/h (2 Bft) 100,00 %
19.09.2022 00:10 9,0 C 8,3 C 5,6 C 97 % 1016,8 hPa 0,0 l/m 0 min 0 min 0 W/m 12,9 km/h (3 Bft) 100,00 %
19.09.2022 00:12 8,9 C 8,3 C 5,6 C 97 % 1016,8 hPa 0,0 l/m 0 min 0 min 0 W/m 6,4 km/h (2 Bft) 100,00 %
19.09.2022 00:14 8,9 C 8,3 C 5,6 C 97 % 1016,8 hPa 0,0 l/m 0 min 0 min 0 W/m 6,4 km/h (2 Bft) 100,00 %
19.09.2022 00:16 8,9 C 8,3 C 5,6 C 97 % 1016,8 hPa 0,0 l/m 0 min 0 min 0 W/m 12,9 km/h (3 Bft) 100,00 %
19.09.2022 00:18 8,9 C 8,3 C 5,6 C 97 % 1016,8 hPa 0,0 l/m 0 min 0 min 0 W/m 6,4 km/h (2 Bft) 97,83 %
19.09.2022 00:20 8,9 C 8,3 C 5,6 C 97 % 1016,8 hPa 0,0 l/m 0 min 0 min 0 W/m 6,4 km/h (2 Bft) 100,00 %
19.09.2022 00:22 8,9 C 8,3 C 5,6 C 97 % 1016,9 hPa 0,0 l/m 0 min 0 min 0 W/m 6,4 km/h (2 Bft) 97,87 %
19.09.2022 00:24 8,9 C 8,3 C 5,6 C 97 % 1016,8 hPa 0,0 l/m 0 min 0 min 0 W/m 6,4 km/h (2 Bft) 100,00 %
19.09.2022 00:26 8,9 C 8,3 C 5,6 C 97 % 1016,9 hPa 0,0 l/m 0 min 0 min 0 W/m 12,9 km/h (3 Bft) 100,00 %
19.09.2022 00:28 8,9 C 8,3 C 5,6 C 97 % 1016,9 hPa 0,0 l/m 0 min 0 min 0 W/m 12,9 km/h (3 Bft) 100,00 %
19.09.2022 00:30 8,9 C 8,3 C 5,6 C 97 % 1016,9 hPa 0,0 l/m 0 min 0 min 0 W/m 6,4 km/h (2 Bft) 100,00 %
19.09.2022 00:32 8,9 C 8,3 C 5,6 C 97 % 1016,9 hPa 0,0 l/m 0 min 0 min 0 W/m 12,9 km/h (3 Bft) 100,00 %
19.09.2022 00:34 8,9 C 8,3 C 5,6 C 97 % 1016,9 hPa 0,0 l/m 0 min 0 min 0 W/m 6,4 km/h (2 Bft) 100,00 %
19.09.2022 00:36 8,9 C 8,3 C 5,6 C 97 % 1017,0 hPa 0,0 l/m 0 min 0 min 0 W/m 12,9 km/h (3 Bft) 100,00 %
19.09.2022 00:38 8,9 C 8,3 C 5,6 C 97 % 1017,0 hPa 0,0 l/m 0 min 0 min 0 W/m 6,4 km/h (2 Bft) 97,87 %
19.09.2022 00:40 8,9 C 8,3 C 5,6 C 97 % 1017,0 hPa 0,0 l/m 0 min 0 min 0 W/m 9,7 km/h (2 Bft) 97,87 %
19.09.2022 00:42 8,9 C 8,3 C 5,6 C 97 % 1017,0 hPa 0,0 l/m 0 min 0 min 0 W/m 6,4 km/h (2 Bft) 97,83 %
19.09.2022 00:44 8,8 C 8,3 C 5,6 C 97 % 1017,0 hPa 0,0 l/m 0 min 0 min 0 W/m 6,4 km/h (2 Bft) 97,87 %
19.09.2022 00:46 8,8 C 8,3 C 5,6 C 97 % 1017,0 hPa 0,0 l/m 0 min 0 min 0 W/m 12,9 km/h (3 Bft) 95,74 %
19.09.2022 00:48 8,8 C 8,3 C 5,6 C 97 % 1017,0 hPa 0,0 l/m 0 min 0 min 0 W/m 3,2 km/h (1 Bft) 95,74 %
19.09.2022 00:50 8,8 C 8,3 C 5,6 C 97 % 1017,0 hPa 0,0 l/m 0 min 0 min 0 W/m 9,7 km/h (2 Bft) 97,87 %
19.09.2022 00:52 8,8 C 8,3 C 5,6 C 97 % 1017,0 hPa 0,0 l/m 0 min 0 min 0 W/m 9,7 km/h (2 Bft) 97,87 %
19.09.2022 00:54 8,8 C 8,3 C 5,6 C 97 % 1017,0 hPa 0,0 l/m 0 min 0 min 0 W/m 6,4 km/h (2 Bft) 97,83 %
19.09.2022 00:56 8,8 C 8,3 C 5,6 C 97 % 1017,0 hPa 0,0 l/m 0 min 0 min 0 W/m 9,7 km/h (2 Bft) 93,62 %
19.09.2022 00:58 8,8 C 8,3 C 5,6 C 97 % 1017,0 hPa 0,0 l/m 0 min 0 min 0 W/m 9,7 km/h (2 Bft) 97,87 %
19.09.2022 01:00 8,8 C 8,3 C 5,6 C 97 % 1017,0 hPa 0,0 l/m 0 min 0 min 0 W/m 6,4 km/h (2 Bft) 100,00 %
19.09.2022 01:02 8,8 C 8,3 C 5,0 C 97 % 1017,0 hPa 0,0 l/m 0 min 0 min 0 W/m 12,9 km/h (3 Bft) 97,87 %
19.09.2022 01:04 8,8 C 8,3 C 5,6 C 97 % 1017,0 hPa 0,0 l/m 0 min 0 min 0 W/m 12,9 km/h (3 Bft) 95,74 %
19.09.2022 01:06 8,8 C 8,3 C 5,6 C 97 % 1017,1 hPa 0,0 l/m 0 min 0 min 0 W/m 6,4 km/h (2 Bft) 95,65 %
19.09.2022 01:08 8,8 C 8,3 C 5,6 C 97 % 1017,2 hPa 0,0 l/m 0 min 0 min 0 W/m 6,4 km/h (2 Bft) 93,62 %
19.09.2022 01:10 8,8 C 8,3 C 5,6 C 97 % 1017,1 hPa 0,0 l/m 0 min 0 min 0 W/m 16,1 km/h (3 Bft) 95,74 %
19.09.2022 01:12 8,8 C 8,3 C 5,6 C 97 % 1017,1 hPa 0,0 l/m 0 min 0 min 0 W/m 6,4 km/h (2 Bft) 93,62 %
19.09.2022 01:14 8,8 C 8,3 C 5,6 C 97 % 1017,1 hPa 0,0 l/m 0 min 0 min 0 W/m 12,9 km/h (3 Bft) 95,74 %
19.09.2022 01:16 8,8 C 8,3 C 5,6 C 97 % 1017,2 hPa 0,0 l/m 0 min 0 min 0 W/m 6,4 km/h (2 Bft) 95,74 %
19.09.2022 01:18 8,8 C 8,3 C 5,6 C 97 % 1017,1 hPa 0,0 l/m 0 min 0 min 0 W/m 9,7 km/h (2 Bft) 95,65 %
19.09.2022 01:20 8,8 C 8,3 C 5,6 C 97 % 1017,2 hPa 0,0 l/m 0 min 0 min 0 W/m 6,4 km/h (2 Bft) 95,74 %
19.09.2022 01:22 8,8 C 8,3 C 5,0 C 97 % 1017,2 hPa 0,0 l/m 0 min 0 min 0 W/m 9,7 km/h (2 Bft) 93,62 %
19.09.2022 01:24 8,8 C 8,3 C 5,0 C 97 % 1017,2 hPa 0,0 l/m 0 min 0 min 0 W/m 6,4 km/h (2 Bft) 93,62 %
19.09.2022 01:26 8,7 C 8,3 C 5,0 C 97 % 1017,2 hPa 0,0 l/m 0 min 0 min 0 W/m 6,4 km/h (2 Bft) 93,62 %
19.09.2022 01:28 8,7 C 7,8 C 5,0 C 97 % 1017,2 hPa 0,0 l/m 0 min 0 min 0 W/m 6,4 km/h (2 Bft) 95,74 %
19.09.2022 01:30 8,7 C 8,3 C 5,6 C 97 % 1017,1 hPa 0,0 l/m 0 min 0 min 0 W/m 6,4 km/h (2 Bft) 95,65 %
19.09.2022 01:32 8,8 C 8,3 C 5,0 C 97 % 1017,2 hPa 0,0 l/m 0 min 0 min 0 W/m 9,7 km/h (2 Bft) 95,74 %
19.09.2022 01:34 8,8 C 8,3 C 5,6 C 97 % 1017,2 hPa 0,0 l/m 0 min 0 min 0 W/m 6,4 km/h (2 Bft) 93,62 %
19.09.2022 01:36 8,8 C 8,3 C 5,6 C 97 % 1017,2 hPa 0,0 l/m 0 min 0 min 0 W/m 6,4 km/h (2 Bft) 95,74 %
19.09.2022 01:38 8,8 C 8,3 C 5,6 C 97 % 1017,2 hPa 0,0 l/m 0 min 0 min 0 W/m 6,4 km/h (2 Bft) 95,74 %
19.09.2022 01:40 8,8 C 8,3 C 5,6 C 97 % 1017,3 hPa 0,0 l/m 0 min 0 min 0 W/m 3,2 km/h (1 Bft) 95,74 %
19.09.2022 01:42 8,8 C 8,3 C 5,6 C 97 % 1017,3 hPa 0,0 l/m 0 min 0 min 0 W/m 12,9 km/h (3 Bft) 95,65 %
19.09.2022 01:44 8,8 C 8,3 C 5,6 C 97 % 1017,3 hPa 0,0 l/m 0 min 0 min 0 W/m 6,4 km/h (2 Bft) 95,74 %
19.09.2022 01:46 8,8 C 8,3 C 5,6 C 97 % 1017,4 hPa 0,0 l/m 0 min 0 min 0 W/m 6,4 km/h (2 Bft) 95,74 %
19.09.2022 01:48 8,8 C 8,3 C 5,6 C 97 % 1017,4 hPa 0,0 l/m 0 min 0 min 0 W/m 6,4 km/h (2 Bft) 91,49 %
19.09.2022 01:50 8,9 C 8,3 C 5,6 C 97 % 1017,4 hPa 0,0 l/m 0 min 0 min 0 W/m 6,4 km/h (2 Bft) 97,87 %
19.09.2022 01:52 8,9 C 8,3 C 5,6 C 97 % 1017,3 hPa 0,0 l/m 0 min 0 min 0 W/m 12,9 km/h (3 Bft) 97,87 %
19.09.2022 01:54 8,9 C 8,3 C 5,6 C 97 % 1017,4 hPa 0,0 l/m 0 min 0 min 0 W/m 6,4 km/h (2 Bft) 97,83 %
19.09.2022 01:56 8,9 C 8,3 C 5,6 C 97 % 1017,4 hPa 0,0 l/m 0 min 0 min 0 W/m 16,1 km/h (3 Bft) 97,87 %
19.09.2022 01:58 9,0 C 8,3 C 5,6 C 97 % 1017,4 hPa 0,0 l/m 0 min 0 min 0 W/m 6,4 km/h (2 Bft) 97,87 %
19.09.2022 02:00 9,0 C 8,3 C 5,6 C 97 % 1017,4 hPa 0,0 l/m 0 min 0 min 0 W/m 9,7 km/h (2 Bft) 97,87 %
19.09.2022 02:02 9,0 C 8,3 C 5,6 C 97 % 1017,3 hPa 0,0 l/m 0 min 0 min 0 W/m 6,4 km/h (2 Bft) 97,87 %
19.09.2022 02:04 9,0 C 8,3 C 5,6 C 97 % 1017,4 hPa 0,0 l/m 0 min 0 min 0 W/m 6,4 km/h (2 Bft) 97,87 %
19.09.2022 02:06 9,0 C 8,3 C 5,6 C 97 % 1017,3 hPa 0,0 l/m 0 min 0 min 0 W/m 12,9 km/h (3 Bft) 100,00 %
19.09.2022 02:08 9,0 C 8,3 C 5,6 C 97 % 1017,4 hPa 0,0 l/m 0 min 0 min 0 W/m 12,9 km/h (3 Bft) 100,00 %
19.09.2022 02:10 9,0 C 8,3 C 5,6 C 97 % 1017,3 hPa 0,0 l/m 0 min 0 min 0 W/m 6,4 km/h (2 Bft) 100,00 %
19.09.2022 02:12 9,0 C 8,3 C 5,6 C 97 % 1017,3 hPa 0,0 l/m 0 min 0 min 0 W/m 6,4 km/h (2 Bft) 97,87 %
19.09.2022 02:14 9,0 C 8,3 C 5,6 C 97 % 1017,3 hPa 0,0 l/m 0 min 0 min 0 W/m 6,4 km/h (2 Bft) 95,74 %
19.09.2022 02:16 9,0 C 8,3 C 5,6 C 97 % 1017,3 hPa 0,0 l/m 0 min 0 min 0 W/m 6,4 km/h (2 Bft) 100,00 %
19.09.2022 02:18 9,0 C 8,3 C 5,6 C 97 % 1017,3 hPa 0,0 l/m 0 min 0 min 0 W/m 6,4 km/h (2 Bft) 100,00 %
19.09.2022 02:20 9,1 C 8,3 C 5,6 C 97 % 1017,3 hPa 0,0 l/m 0 min 0 min 0 W/m 12,9 km/h (3 Bft) 100,00 %
19.09.2022 02:22 9,1 C 8,3 C 5,6 C 97 % 1017,3 hPa 0,0 l/m 0 min 0 min 0 W/m 6,4 km/h (2 Bft) 100,00 %
19.09.2022 02:24 9,1 C 8,3 C 5,6 C 97 % 1017,3 hPa 0,0 l/m 0 min 0 min 0 W/m 6,4 km/h (2 Bft) 97,14 %
19.09.2022 02:26 9,1 C 8,3 C 5,6 C 97 % 1017,3 hPa 0,0 l/m 0 min 0 min 0 W/m 12,9 km/h (3 Bft) 97,96 %
19.09.2022 02:28 9,1 C 8,3 C 5,6 C 97 % 1017,4 hPa 0,0 l/m 0 min 0 min 0 W/m 6,4 km/h (2 Bft) 97,87 %
19.09.2022 02:30 9,1 C 8,3 C 5,6 C 97 % 1017,3 hPa 0,0 l/m 0 min 0 min 0 W/m 6,4 km/h (2 Bft) 97,87 %
19.09.2022 02:32 9,1 C 8,3 C 5,6 C 97 % 1017,3 hPa 0,0 l/m 0 min 0 min 0 W/m 6,4 km/h (2 Bft) 97,87 %
19.09.2022 02:34 9,1 C 8,3 C 5,6 C 97 % 1017,3 hPa 0,0 l/m 0 min 0 min 0 W/m 6,4 km/h (2 Bft) 97,87 %
19.09.2022 02:36 9,1 C 8,3 C 5,6 C 97 % 1017,3 hPa 0,0 l/m 0 min 0 min 0 W/m 6,4 km/h (2 Bft) 98,00 %
19.09.2022 02:38 9,1 C 8,3 C 5,6 C 97 % 1017,3 hPa 0,0 l/m 0 min 0 min 0 W/m 6,4 km/h (2 Bft) 97,87 %
19.09.2022 02:40 9,1 C 8,3 C 5,6 C 97 % 1017,3 hPa 0,0 l/m 0 min 0 min 0 W/m 6,4 km/h (2 Bft) 97,83 %
19.09.2022 02:42 9,1 C 8,3 C 5,6 C 97 % 1017,4 hPa 0,0 l/m 0 min 0 min 0 W/m 6,4 km/h (2 Bft) 97,87 %
19.09.2022 02:44 9,1 C 8,3 C 5,6 C 97 % 1017,3 hPa 0,0 l/m 0 min 0 min 0 W/m 6,4 km/h (2 Bft) 97,87 %
19.09.2022 02:46 9,1 C 8,3 C 5,6 C 97 % 1017,4 hPa 0,0 l/m 0 min 0 min 0 W/m 3,2 km/h (1 Bft) 72,34 %
19.09.2022 02:48 9,1 C 8,3 C 5,6 C 97 % 1017,4 hPa 0,0 l/m 0 min 0 min 0 W/m 3,2 km/h (1 Bft) 79,07 %
19.09.2022 02:50 9,1 C 8,3 C 5,6 C 97 % 1017,4 hPa 0,0 l/m 0 min 0 min 0 W/m 3,2 km/h (1 Bft) 97,87 %
19.09.2022 02:52 9,1 C 8,3 C 5,6 C 97 % 1017,4 hPa 0,0 l/m 0 min 0 min 0 W/m 6,4 km/h (2 Bft) 95,65 %
19.09.2022 02:54 9,1 C 8,3 C 5,6 C 97 % 1017,4 hPa 0,0 l/m 0 min 0 min 0 W/m 3,2 km/h (1 Bft) 100,00 %
19.09.2022 02:56 9,1 C 8,3 C 5,6 C 97 % 1017,4 hPa 0,0 l/m 0 min 0 min 0 W/m 6,4 km/h (2 Bft) 100,00 %
19.09.2022 02:58 9,1 C 8,3 C 5,6 C 97 % 1017,4 hPa 0,0 l/m 0 min 0 min 0 W/m 9,7 km/h (2 Bft) 100,00 %
19.09.2022 03:00 9,1 C 8,3 C 5,6 C 97 % 1017,4 hPa 0,0 l/m 0 min 0 min 0 W/m 3,2 km/h (1 Bft) 100,00 %
19.09.2022 03:02 9,1 C 8,3 C 5,6 C 97 % 1017,4 hPa 0,0 l/m 0 min 0 min 0 W/m 3,2 km/h (1 Bft) 100,00 %
19.09.2022 03:04 9,1 C 8,3 C 5,6 C 97 % 1017,4 hPa 0,0 l/m 0 min 0 min 0 W/m 3,2 km/h (1 Bft) 100,00 %
19.09.2022 03:06 9,1 C 8,3 C 5,6 C 97 % 1017,4 hPa 0,0 l/m 0 min 0 min 0 W/m 6,4 km/h (2 Bft) 97,87 %
19.09.2022 03:08 9,1 C 8,3 C 5,6 C 97 % 1017,4 hPa 0,0 l/m 0 min 0 min 0 W/m 6,4 km/h (2 Bft) 100,00 %
19.09.2022 03:10 9,1 C 8,3 C 5,6 C 97 % 1017,5 hPa 0,0 l/m 0 min 0 min 0 W/m 6,4 km/h (2 Bft) 100,00 %
19.09.2022 03:12 9,1 C 8,3 C 5,6 C 97 % 1017,5 hPa 0,0 l/m 0 min 0 min 0 W/m 3,2 km/h (1 Bft) 100,00 %
19.09.2022 03:14 9,1 C 8,3 C 5,6 C 97 % 1017,5 hPa 0,0 l/m 0 min 0 min 0 W/m 6,4 km/h (2 Bft) 100,00 %
19.09.2022 03:16 9,1 C 8,3 C 5,6 C 97 % 1017,5 hPa 0,0 l/m 0 min 0 min 0 W/m 9,7 km/h (2 Bft) 97,83 %
19.09.2022 03:18 9,1 C 8,3 C 5,6 C 97 % 1017,5 hPa 0,0 l/m 0 min 0 min 0 W/m 3,2 km/h (1 Bft) 100,00 %
19.09.2022 03:20 9,1 C 8,3 C 5,6 C 97 % 1017,5 hPa 0,0 l/m 0 min 0 min 0 W/m 3,2 km/h (1 Bft) 97,87 %
19.09.2022 03:22 9,0 C 8,3 C 5,6 C 97 % 1017,5 hPa 0,0 l/m 0 min 0 min 0 W/m 0,0 km/h (0 Bft) 100,00 %
19.09.2022 03:24 9,0 C 8,3 C 5,6 C 97 % 1017,5 hPa 0,0 l/m 0 min 0 min 0 W/m 9,7 km/h (2 Bft) 97,87 %
19.09.2022 03:26 8,9 C 8,3 C 5,6 C 96 % 1017,5 hPa 0,0 l/m 0 min 0 min 0 W/m 6,4 km/h (2 Bft) 97,87 %
19.09.2022 03:28 8,9 C 8,3 C 5,6 C 96 % 1017,5 hPa 0,0 l/m 0 min 0 min 0 W/m 3,2 km/h (1 Bft) 100,00 %
19.09.2022 03:30 8,9 C 8,3 C 5,6 C 96 % 1017,5 hPa 0,0 l/m 0 min 0 min 0 W/m 3,2 km/h (1 Bft) 97,87 %
19.09.2022 03:32 8,9 C 8,3 C 5,6 C 96 % 1017,5 hPa 0,0 l/m 0 min 0 min 0 W/m 6,4 km/h (2 Bft) 97,87 %
19.09.2022 03:34 8,9 C 8,3 C 5,6 C 96 % 1017,6 hPa 0,0 l/m 0 min 0 min 0 W/m 9,7 km/h (2 Bft) 97,87 %
19.09.2022 03:36 8,9 C 8,3 C 5,6 C 96 % 1017,6 hPa 0,0 l/m 0 min 0 min 0 W/m 9,7 km/h (2 Bft) 100,00 %
19.09.2022 03:38 8,8 C 8,3 C 5,6 C 96 % 1017,6 hPa 0,0 l/m 0 min 0 min 0 W/m 3,2 km/h (1 Bft) 100,00 %
19.09.2022 03:40 8,8 C 8,3 C 5,6 C 96 % 1017,6 hPa 0,0 l/m 0 min 0 min 0 W/m 6,4 km/h (2 Bft) 100,00 %
19.09.2022 03:42 8,8 C 8,3 C 5,0 C 96 % 1017,6 hPa 0,0 l/m 0 min 0 min 0 W/m 9,7 km/h (2 Bft) 97,87 %
19.09.2022 03:44 8,8 C 7,8 C 5,0 C 96 % 1017,7 hPa 0,0 l/m 0 min 0 min 0 W/m 6,4 km/h (2 Bft) 97,87 %
19.09.2022 03:46 8,8 C 8,3 C 5,0 C 96 % 1017,7 hPa 0,0 l/m 0 min 0 min 0 W/m 3,2 km/h (1 Bft) 97,87 %
19.09.2022 03:48 8,8 C 7,8 C 5,0 C 96 % 1017,7 hPa 0,0 l/m 0 min 0 min 0 W/m 3,2 km/h (1 Bft) 95,74 %
19.09.2022 03:50 8,8 C 7,8 C 5,0 C 96 % 1017,7 hPa 0,0 l/m 0 min 0 min 0 W/m 3,2 km/h (1 Bft) 97,87 %
19.09.2022 03:52 8,7 C 7,8 C 5,0 C 96 % 1017,8 hPa 0,0 l/m 0 min 0 min 0 W/m 6,4 km/h (2 Bft) 97,83 %
19.09.2022 03:54 8,7 C 7,8 C 5,0 C 96 % 1017,7 hPa 0,0 l/m 0 min 0 min 0 W/m 3,2 km/h (1 Bft) 95,74 %
19.09.2022 03:56 8,7 C 7,8 C 5,0 C 96 % 1017,8 hPa 0,0 l/m 0 min 0 min 0 W/m 3,2 km/h (1 Bft) 97,87 %
19.09.2022 03:58 8,7 C 7,8 C 5,0 C 96 % 1017,8 hPa 0,0 l/m 0 min 0 min 0 W/m 6,4 km/h (2 Bft) 95,74 %
19.09.2022 04:00 8,7 C 7,8 C 5,0 C 96 % 1017,7 hPa 0,0 l/m 0 min 0 min 0 W/m 0,0 km/h (0 Bft) 97,62 %
19.09.2022 04:02 8,7 C 7,8 C 5,0 C 96 % 1017,8 hPa 0,0 l/m 0 min 0 min 0 W/m 6,4 km/h (2 Bft) 100,00 %
19.09.2022 04:04 8,7 C 7,8 C 5,0 C 96 % 1017,8 hPa 0,0 l/m 0 min 0 min 0 W/m 6,4 km/h (2 Bft) 97,87 %
19.09.2022 04:06 8,7 C 7,8 C 5,0 C 96 % 1017,8 hPa 0,0 l/m 0 min 0 min 0 W/m 6,4 km/h (2 Bft) 96,55 %
19.09.2022 04:08 8,7 C 7,8 C 5,0 C 96 % 1017,9 hPa 0,0 l/m 0 min 0 min 0 W/m 3,2 km/h (1 Bft) 100,00 %
19.09.2022 04:10 8,7 C 8,3 C 5,0 C 96 % 1017,8 hPa 0,0 l/m 0 min 0 min 0 W/m 3,2 km/h (1 Bft) 97,83 %
19.09.2022 04:12 8,7 C 8,3 C 5,0 C 96 % 1017,8 hPa 0,0 l/m 0 min 0 min 0 W/m 6,4 km/h (2 Bft) 100,00 %
19.09.2022 04:14 8,7 C 8,3 C 5,0 C 96 % 1017,8 hPa 0,0 l/m 0 min 0 min 0 W/m 6,4 km/h (2 Bft) 97,87 %
19.09.2022 04:16 8,7 C 8,3 C 5,0 C 96 % 1017,8 hPa 0,0 l/m 0 min 0 min 0 W/m 6,4 km/h (2 Bft) 95,74 %
19.09.2022 04:18 8,7 C 8,3 C 5,0 C 96 % 1017,8 hPa 0,0 l/m 0 min 0 min 0 W/m 6,4 km/h (2 Bft) 95,74 %
19.09.2022 04:20 8,7 C 8,3 C 5,0 C 96 % 1017,9 hPa 0,0 l/m 0 min 0 min 0 W/m 6,4 km/h (2 Bft) 95,74 %
19.09.2022 04:22 8,7 C 8,3 C 5,0 C 96 % 1017,9 hPa 0,0 l/m 0 min 0 min 0 W/m 6,4 km/h (2 Bft) 95,65 %
19.09.2022 04:24 8,7 C 8,3 C 5,6 C 96 % 1017,8 hPa 0,0 l/m 0 min 0 min 0 W/m 9,7 km/h (2 Bft) 95,74 %
19.09.2022 04:26 8,7 C 8,3 C 5,0 C 96 % 1017,9 hPa 0,0 l/m 0 min 0 min 0 W/m 6,4 km/h (2 Bft) 93,62 %
19.09.2022 04:28 8,7 C 8,3 C 5,0 C 96 % 1017,9 hPa 0,0 l/m 0 min 0 min 0 W/m 6,4 km/h (2 Bft) 95,74 %
19.09.2022 04:30 8,7 C 8,3 C 5,0 C 96 % 1017,8 hPa 0,0 l/m 0 min 0 min 0 W/m 6,4 km/h (2 Bft) 95,74 %
19.09.2022 04:32 8,7 C 8,3 C 5,0 C 96 % 1017,8 hPa 0,0 l/m 0 min 0 min 0 W/m 9,7 km/h (2 Bft) 93,62 %
19.09.2022 04:34 8,7 C 8,3 C 5,0 C 96 % 1017,9 hPa 0,0 l/m 0 min 0 min 0 W/m 3,2 km/h (1 Bft) 95,65 %
19.09.2022 04:36 8,7 C 7,8 C 5,0 C 96 % 1017,9 hPa 0,0 l/m 0 min 0 min 0 W/m 6,4 km/h (2 Bft) 96,61 %
19.09.2022 04:38 8,7 C 7,8 C 5,0 C 96 % 1017,9 hPa 0,0 l/m 0 min 0 min 0 W/m 9,7 km/h (2 Bft) 97,14 %
19.09.2022 04:40 8,7 C 7,8 C 5,0 C 96 % 1018,0 hPa 0,0 l/m 0 min 0 min 0 W/m 6,4 km/h (2 Bft) 97,87 %
19.09.2022 04:42 8,7 C 7,8 C 5,0 C 96 % 1018,0 hPa 0,0 l/m 0 min 0 min 0 W/m 3,2 km/h (1 Bft) 95,74 %
19.09.2022 04:44 8,6 C 7,8 C 5,0 C 96 % 1017,9 hPa 0,0 l/m 0 min 0 min 0 W/m 6,4 km/h (2 Bft) 97,87 %
19.09.2022 04:46 8,6 C 7,8 C 5,0 C 96 % 1017,9 hPa 0,0 l/m 0 min 0 min 0 W/m 6,4 km/h (2 Bft) 97,96 %
19.09.2022 04:48 8,6 C 7,8 C 5,0 C 96 % 1017,9 hPa 0,0 l/m 0 min 0 min 0 W/m 9,7 km/h (2 Bft) 100,00 %
19.09.2022 04:50 8,6 C 7,8 C 5,0 C 96 % 1017,9 hPa 0,0 l/m 0 min 0 min 0 W/m 6,4 km/h (2 Bft) 97,87 %
19.09.2022 04:52 8,6 C 7,8 C 5,0 C 96 % 1018,0 hPa 0,0 l/m 0 min 0 min 0 W/m 6,4 km/h (2 Bft) 97,87 %
19.09.2022 04:54 8,6 C 7,8 C 5,0 C 96 % 1018,0 hPa 0,0 l/m 0 min 0 min 0 W/m 3,2 km/h (1 Bft) 97,87 %
19.09.2022 04:56 8,6 C 7,8 C 5,0 C 96 % 1018,0 hPa 0,0 l/m 0 min 0 min 0 W/m 3,2 km/h (1 Bft) 95,65 %
19.09.2022 04:58 8,6 C 7,8 C 5,0 C 96 % 1018,0 hPa 0,0 l/m 0 min 0 min 0 W/m 3,2 km/h (1 Bft) 97,87 %
19.09.2022 05:00 8,6 C 7,8 C 5,0 C 96 % 1018,0 hPa 0,0 l/m 0 min 0 min 0 W/m 3,2 km/h (1 Bft) 95,74 %
19.09.2022 05:02 8,6 C 7,8 C 5,0 C 96 % 1018,0 hPa 0,0 l/m 0 min 0 min 0 W/m 6,4 km/h (2 Bft) 95,74 %
19.09.2022 05:04 8,6 C 7,8 C 5,0 C 96 % 1018,1 hPa 0,0 l/m 0 min 0 min 0 W/m 3,2 km/h (1 Bft) 95,74 %
19.09.2022 05:06 8,6 C 7,8 C 5,0 C 96 % 1018,1 hPa 0,0 l/m 0 min 0 min 0 W/m 6,4 km/h (2 Bft) 93,62 %
19.09.2022 05:08 8,6 C 7,8 C 5,0 C 96 % 1018,1 hPa 0,0 l/m 0 min 0 min 0 W/m 6,4 km/h (2 Bft) 97,83 %
19.09.2022 05:10 8,6 C 7,8 C 5,0 C 96 % 1018,2 hPa 0,0 l/m 0 min 0 min 0 W/m 3,2 km/h (1 Bft) 97,87 %
19.09.2022 05:12 8,6 C 7,8 C 5,0 C 96 % 1018,2 hPa 0,0 l/m 0 min 0 min 0 W/m 3,2 km/h (1 Bft) 97,87 %
19.09.2022 05:14 8,6 C 7,8 C 5,0 C 96 % 1018,2 hPa 0,0 l/m 0 min 0 min 0 W/m 9,7 km/h (2 Bft) 97,87 %
19.09.2022 05:16 8,5 C 7,8 C 5,0 C 96 % 1018,2 hPa 0,0 l/m 0 min 0 min 0 W/m 9,7 km/h (2 Bft) 93,62 %
19.09.2022 05:18 8,5 C 7,8 C 5,0 C 96 % 1018,2 hPa 0,0 l/m 0 min 0 min 0 W/m 6,4 km/h (2 Bft) 97,87 %
19.09.2022 05:20 8,5 C 7,8 C 5,0 C 96 % 1018,2 hPa 0,0 l/m 0 min 0 min 0 W/m 6,4 km/h (2 Bft) 97,83 %
19.09.2022 05:22 8,5 C 7,8 C 5,0 C 96 % 1018,2 hPa 0,0 l/m 0 min 0 min 0 W/m 6,4 km/h (2 Bft) 97,87 %
19.09.2022 05:24 8,5 C 7,8 C 5,0 C 96 % 1018,1 hPa 0,0 l/m 0 min 0 min 0 W/m 6,4 km/h (2 Bft) 100,00 %
19.09.2022 05:26 8,5 C 7,8 C 5,0 C 96 % 1018,2 hPa 0,0 l/m 0 min 0 min 0 W/m 6,4 km/h (2 Bft) 100,00 %
19.09.2022 05:28 8,4 C 7,8 C 5,0 C 96 % 1018,2 hPa 0,0 l/m 0 min 0 min 0 W/m 6,4 km/h (2 Bft) 100,00 %
19.09.2022 05:30 8,4 C 7,8 C 5,0 C 96 % 1018,2 hPa 0,0 l/m 0 min 0 min 0 W/m 3,2 km/h (1 Bft) 100,00 %
19.09.2022 05:32 8,4 C 7,8 C 5,0 C 96 % 1018,2 hPa 0,0 l/m 0 min 0 min 0 W/m 6,4 km/h (2 Bft) 97,96 %
19.09.2022 05:34 8,4 C 7,8 C 5,0 C 96 % 1018,2 hPa 0,0 l/m 0 min 0 min 0 W/m 6,4 km/h (2 Bft) 97,87 %
19.09.2022 05:36 8,4 C 7,8 C 5,0 C 95 % 1018,2 hPa 0,0 l/m 0 min 0 min 0 W/m 12,9 km/h (3 Bft) 97,87 %
19.09.2022 05:38 8,4 C 7,8 C 5,0 C 95 % 1018,3 hPa 0,0 l/m 0 min 0 min 0 W/m 12,9 km/h (3 Bft) 100,00 %
19.09.2022 05:40 8,4 C 7,8 C 5,0 C 95 % 1018,3 hPa 0,0 l/m 0 min 0 min 0 W/m 6,4 km/h (2 Bft) 97,87 %
19.09.2022 05:42 8,4 C 7,8 C 5,0 C 95 % 1018,3 hPa 0,0 l/m 0 min 0 min 0 W/m 6,4 km/h (2 Bft) 97,87 %
19.09.2022 05:45 8,4 C 7,8 C 5,0 C 95 % 1018,3 hPa 0,0 l/m 0 min 0 min 0 W/m 6,4 km/h (2 Bft) 98,75 %
19.09.2022 05:46 8,4 C 7,8 C 5,0 C 95 % 1018,3 hPa 0,0 l/m 0 min 0 min 0 W/m 3,2 km/h (1 Bft) 100,00 %
19.09.2022 05:48 8,4 C 7,8 C 5,0 C 95 % 1018,3 hPa 0,0 l/m 0 min 0 min 0 W/m 9,7 km/h (2 Bft) 100,00 %
19.09.2022 05:50 8,4 C 7,8 C 5,0 C 95 % 1018,3 hPa 0,0 l/m 0 min 0 min 0 W/m 6,4 km/h (2 Bft) 100,00 %
19.09.2022 05:52 8,3 C 7,8 C 5,0 C 95 % 1018,3 hPa 0,0 l/m 0 min 0 min 0 W/m 6,4 km/h (2 Bft) 97,87 %
19.09.2022 05:54 8,3 C 7,8 C 5,0 C 95 % 1018,3 hPa 0,0 l/m 0 min 0 min 0 W/m 6,4 km/h (2 Bft) 97,87 %
19.09.2022 05:56 8,3 C 7,8 C 5,0 C 95 % 1018,3 hPa 0,0 l/m 0 min 0 min 0 W/m 6,4 km/h (2 Bft) 95,65 %
19.09.2022 05:58 8,3 C 7,8 C 5,0 C 95 % 1018,3 hPa 0,0 l/m 0 min 0 min 0 W/m 6,4 km/h (2 Bft) 95,74 %
19.09.2022 06:00 8,3 C 7,8 C 5,0 C 95 % 1018,4 hPa 0,0 l/m 0 min 0 min 0 W/m 6,4 km/h (2 Bft) 95,74 %
19.09.2022 06:02 8,3 C 7,8 C 5,0 C 95 % 1018,4 hPa 0,0 l/m 0 min 0 min 0 W/m 6,4 km/h (2 Bft) 97,87 %
19.09.2022 06:04 8,3 C 7,8 C 5,0 C 95 % 1018,4 hPa 0,0 l/m 0 min 0 min 0 W/m 6,4 km/h (2 Bft) 97,92 %
19.09.2022 06:08 8,3 C 7,8 C 5,0 C 95 % 1018,4 hPa 0,0 l/m 0 min 0 min 0 W/m 6,4 km/h (2 Bft) 96,84 %
19.09.2022 06:10 8,3 C 7,8 C 5,0 C 95 % 1018,4 hPa 0,0 l/m 0 min 0 min 0 W/m 3,2 km/h (1 Bft) 95,74 %
19.09.2022 06:12 8,3 C 7,8 C 5,0 C 95 % 1018,4 hPa 0,0 l/m 0 min 0 min 0 W/m 3,2 km/h (1 Bft) 95,74 %
19.09.2022 06:14 8,3 C 7,8 C 5,0 C 95 % 1018,4 hPa 0,0 l/m 0 min 0 min 0 W/m 6,4 km/h (2 Bft) 91,49 %
19.09.2022 06:16 8,3 C 7,8 C 5,0 C 95 % 1018,4 hPa 0,0 l/m 0 min 0 min 0 W/m 3,2 km/h (1 Bft) 93,62 %
19.09.2022 06:18 8,3 C 7,8 C 5,0 C 95 % 1018,5 hPa 0,0 l/m 0 min 0 min 0 W/m 6,4 km/h (2 Bft) 97,87 %
19.09.2022 06:20 8,3 C 7,8 C 5,0 C 95 % 1018,4 hPa 0,0 l/m 0 min 0 min 0 W/m 3,2 km/h (1 Bft) 97,87 %
19.09.2022 06:22 8,3 C 7,8 C 5,0 C 95 % 1018,4 hPa 0,0 l/m 0 min 0 min 0 W/m 6,4 km/h (2 Bft) 97,87 %
19.09.2022 06:24 8,3 C 7,8 C 5,0 C 95 % 1018,5 hPa 0,0 l/m 0 min 0 min 0 W/m 6,4 km/h (2 Bft) 97,87 %
19.09.2022 06:26 8,3 C 7,8 C 5,0 C 95 % 1018,5 hPa 0,0 l/m 0 min 0 min 0 W/m 6,4 km/h (2 Bft) 97,83 %
19.09.2022 06:28 8,3 C 7,8 C 5,0 C 96 % 1018,5 hPa 0,0 l/m 0 min 0 min 0 W/m 6,4 km/h (2 Bft) 97,87 %
19.09.2022 06:30 8,3 C 7,8 C 5,0 C 96 % 1018,5 hPa 0,0 l/m 0 min 0 min 0 W/m 6,4 km/h (2 Bft) 97,87 %
19.09.2022 06:32 8,3 C 7,8 C 5,0 C 95 % 1018,5 hPa 0,0 l/m 0 min 0 min 0 W/m 6,4 km/h (2 Bft) 97,87 %
19.09.2022 06:34 8,3 C 7,8 C 5,0 C 95 % 1018,5 hPa 0,0 l/m 0 min 0 min 0 W/m 6,4 km/h (2 Bft) 95,74 %
19.09.2022 06:36 8,3 C 7,8 C 5,0 C 95 % 1018,6 hPa 0,0 l/m 0 min 0 min 0 W/m 6,4 km/h (2 Bft) 97,87 %
19.09.2022 06:38 8,3 C 7,8 C 5,0 C 95 % 1018,5 hPa 0,0 l/m 0 min 0 min 0 W/m 9,7 km/h (2 Bft) 97,83 %
19.09.2022 06:40 8,3 C 7,8 C 5,0 C 95 % 1018,6 hPa 0,0 l/m 0 min 0 min 0 W/m 9,7 km/h (2 Bft) 97,87 %
19.09.2022 06:42 8,3 C 7,8 C 5,0 C 95 % 1018,6 hPa 0,0 l/m 0 min 0 min 0 W/m 6,4 km/h (2 Bft) 97,87 %
19.09.2022 06:44 8,3 C 7,8 C 5,0 C 95 % 1018,6 hPa 0,0 l/m 0 min 0 min 0 W/m 6,4 km/h (2 Bft) 97,87 %
19.09.2022 06:46 8,3 C 7,8 C 5,0 C 95 % 1018,6 hPa 0,0 l/m 0 min 0 min 0 W/m 6,4 km/h (2 Bft) 97,87 %
19.09.2022 06:48 8,3 C 7,8 C 5,0 C 95 % 1018,6 hPa 0,0 l/m 0 min 0 min 0 W/m 9,7 km/h (2 Bft) 97,87 %
19.09.2022 06:50 8,3 C 7,8 C 5,0 C 95 % 1018,6 hPa 0,0 l/m 0 min 0 min 0 W/m 6,4 km/h (2 Bft) 97,83 %
19.09.2022 06:52 8,3 C 7,8 C 5,0 C 95 % 1018,6 hPa 0,0 l/m 0 min 0 min 0 W/m 6,4 km/h (2 Bft) 97,87 %
19.09.2022 06:54 8,3 C 7,8 C 5,0 C 95 % 1018,6 hPa 0,0 l/m 0 min 0 min 0 W/m 6,4 km/h (2 Bft) 100,00 %
19.09.2022 06:56 8,3 C 7,8 C 5,0 C 95 % 1018,6 hPa 0,0 l/m 0 min 0 min 0 W/m 6,4 km/h (2 Bft) 100,00 %
19.09.2022 06:58 8,3 C 7,8 C 5,0 C 95 % 1018,7 hPa 0,0 l/m 0 min 0 min 0 W/m 12,9 km/h (3 Bft) 100,00 %
19.09.2022 07:00 8,3 C 7,8 C 5,0 C 95 % 1018,6 hPa 0,0 l/m 0 min 0 min 0 W/m 12,9 km/h (3 Bft) 100,00 %
19.09.2022 07:02 8,3 C 7,8 C 5,0 C 95 % 1018,7 hPa 0,0 l/m 0 min 0 min 0 W/m 12,9 km/h (3 Bft) 100,00 %
19.09.2022 07:04 8,3 C 7,8 C 5,0 C 95 % 1018,7 hPa 0,0 l/m 0 min 0 min 0 W/m 6,4 km/h (2 Bft) 100,00 %
19.09.2022 07:06 8,3 C 7,8 C 5,0 C 95 % 1018,7 hPa 0,0 l/m 0 min 0 min 0 W/m 6,4 km/h (2 Bft) 100,00 %
19.09.2022 07:08 8,3 C 7,8 C 5,0 C 95 % 1018,7 hPa 0,0 l/m 0 min 0 min 0 W/m 6,4 km/h (2 Bft) 100,00 %
19.09.2022 07:10 8,3 C 7,8 C 5,0 C 95 % 1018,7 hPa 0,0 l/m 0 min 0 min 0 W/m 9,7 km/h (2 Bft) 100,00 %
19.09.2022 07:12 8,3 C 7,8 C 5,0 C 95 % 1018,8 hPa 0,0 l/m 0 min 0 min 0 W/m 9,7 km/h (2 Bft) 100,00 %
19.09.2022 07:14 8,3 C 7,8 C 5,0 C 95 % 1018,7 hPa 0,0 l/m 0 min 0 min 0 W/m 6,4 km/h (2 Bft) 100,00 %
19.09.2022 07:16 8,3 C 7,8 C 5,0 C 95 % 1018,8 hPa 0,0 l/m 0 min 0 min 0 W/m 6,4 km/h (2 Bft) 100,00 %
19.09.2022 07:18 8,3 C 7,8 C 5,0 C 95 % 1018,8 hPa 0,0 l/m 0 min 0 min 0 W/m 6,4 km/h (2 Bft) 100,00 %
19.09.2022 07:20 8,3 C 7,8 C 5,0 C 95 % 1018,8 hPa 0,0 l/m 0 min 0 min 5 W/m 6,4 km/h (2 Bft) 100,00 %
19.09.2022 07:22 8,3 C 7,8 C 5,0 C 95 % 1018,8 hPa 0,0 l/m 0 min 0 min 5 W/m 9,7 km/h (2 Bft) 100,00 %
19.09.2022 07:24 8,3 C 7,8 C 5,0 C 95 % 1018,8 hPa 0,0 l/m 0 min 0 min 5 W/m 6,4 km/h (2 Bft) 100,00 %
19.09.2022 07:26 8,3 C 7,8 C 5,0 C 95 % 1018,9 hPa 0,0 l/m 0 min 0 min 7 W/m 6,4 km/h (2 Bft) 100,00 %
19.09.2022 07:28 8,3 C 7,8 C 5,0 C 95 % 1018,9 hPa 0,0 l/m 0 min 0 min 7 W/m 3,2 km/h (1 Bft) 100,00 %
19.09.2022 07:30 8,3 C 7,8 C 5,0 C 95 % 1018,9 hPa 0,0 l/m 0 min 0 min 9 W/m 12,9 km/h (3 Bft) 100,00 %
19.09.2022 07:32 8,3 C 7,8 C 5,0 C 95 % 1018,9 hPa 0,0 l/m 0 min 0 min 9 W/m 6,4 km/h (2 Bft) 100,00 %
19.09.2022 07:34 8,3 C 7,8 C 5,0 C 96 % 1018,9 hPa 0,0 l/m 0 min 0 min 10 W/m 9,7 km/h (2 Bft) 97,87 %
19.09.2022 07:36 8,3 C 7,8 C 5,0 C 96 % 1019,0 hPa 0,0 l/m 0 min 0 min 11 W/m 6,4 km/h (2 Bft) 97,87 %
19.09.2022 07:38 8,3 C 7,8 C 5,0 C 96 % 1019,0 hPa 0,0 l/m 0 min 0 min 12 W/m 6,4 km/h (2 Bft) 97,83 %
19.09.2022 07:40 8,3 C 7,8 C 5,0 C 96 % 1019,0 hPa 0,0 l/m 0 min 0 min 12 W/m 3,2 km/h (1 Bft) 97,87 %
19.09.2022 07:42 8,3 C 7,8 C 5,0 C 96 % 1019,0 hPa 0,0 l/m 0 min 0 min 12 W/m 6,4 km/h (2 Bft) 97,87 %
19.09.2022 07:44 8,3 C 7,8 C 5,0 C 96 % 1019,0 hPa 0,0 l/m 0 min 0 min 14 W/m 0,0 km/h (0 Bft) 97,87 %
19.09.2022 07:46 8,3 C 7,8 C 5,0 C 96 % 1019,0 hPa 0,0 l/m 0 min 0 min 15 W/m 0,0 km/h (0 Bft) 97,87 %
19.09.2022 07:48 8,3 C 7,8 C 5,0 C 96 % 1019,0 hPa 0,0 l/m 0 min 0 min 16 W/m 0,0 km/h (0 Bft) 97,87 %
19.09.2022 07:50 8,3 C 7,8 C 5,0 C 96 % 1018,9 hPa 0,0 l/m 0 min 0 min 16 W/m 0,0 km/h (0 Bft) 97,83 %
19.09.2022 07:52 8,3 C 7,8 C 5,6 C 96 % 1019,1 hPa 0,0 l/m 0 min 0 min 18 W/m 6,4 km/h (2 Bft) 95,74 %
19.09.2022 07:54 8,4 C 7,8 C 5,6 C 96 % 1019,0 hPa 0,0 l/m 0 min 0 min 21 W/m 3,2 km/h (1 Bft) 95,74 %
19.09.2022 07:56 8,4 C 7,8 C 5,6 C 96 % 1019,1 hPa 0,0 l/m 0 min 0 min 21 W/m 3,2 km/h (1 Bft) 93,62 %
19.09.2022 07:58 8,4 C 7,8 C 5,6 C 96 % 1019,1 hPa 0,0 l/m 0 min 0 min 21 W/m 3,2 km/h (1 Bft) 93,62 %
19.09.2022 08:00 8,4 C 7,8 C 5,6 C 96 % 1019,1 hPa 0,0 l/m 0 min 0 min 23 W/m 3,2 km/h (1 Bft) 95,65 %
19.09.2022 08:02 8,4 C 7,8 C 5,6 C 96 % 1019,2 hPa 0,0 l/m 0 min 0 min 29 W/m 3,2 km/h (1 Bft) 95,74 %
19.09.2022 08:04 8,5 C 8,3 C 5,6 C 96 % 1019,2 hPa 0,0 l/m 0 min 0 min 37 W/m 6,4 km/h (2 Bft) 97,87 %
19.09.2022 08:06 8,5 C 8,3 C 5,6 C 96 % 1019,3 hPa 0,0 l/m 0 min 0 min 43 W/m 3,2 km/h (1 Bft) 97,87 %
19.09.2022 08:08 8,6 C 8,3 C 5,6 C 96 % 1019,3 hPa 0,0 l/m 0 min 0 min 46 W/m 3,2 km/h (1 Bft) 95,74 %
19.09.2022 08:10 8,6 C 8,3 C 5,6 C 96 % 1019,3 hPa 0,0 l/m 0 min 0 min 48 W/m 0,0 km/h (0 Bft) 97,87 %
19.09.2022 08:12 8,6 C 8,3 C 5,6 C 96 % 1019,3 hPa 0,0 l/m 0 min 0 min 45 W/m 3,2 km/h (1 Bft) 97,83 %
19.09.2022 08:14 8,7 C 8,3 C 6,1 C 96 % 1019,3 hPa 0,0 l/m 0 min 0 min 37 W/m 3,2 km/h (1 Bft) 97,87 %
19.09.2022 08:16 8,7 C 8,3 C 6,1 C 96 % 1019,3 hPa 0,0 l/m 0 min 0 min 30 W/m 3,2 km/h (1 Bft) 95,74 %
19.09.2022 08:18 8,7 C 8,3 C 6,1 C 96 % 1019,3 hPa 0,0 l/m 0 min 0 min 28 W/m 9,7 km/h (2 Bft) 97,87 %
19.09.2022 08:20 8,8 C 8,3 C 6,1 C 96 % 1019,2 hPa 0,0 l/m 0 min 0 min 29 W/m 6,4 km/h (2 Bft) 97,87 %
19.09.2022 08:22 8,8 C 8,3 C 6,1 C 96 % 1019,3 hPa 0,0 l/m 0 min 0 min 32 W/m 6,4 km/h (2 Bft) 97,87 %
19.09.2022 08:24 8,8 C 8,3 C 6,1 C 96 % 1019,3 hPa 0,0 l/m 0 min 0 min 37 W/m 3,2 km/h (1 Bft) 97,83 %
19.09.2022 08:26 8,8 C 8,9 C 6,1 C 96 % 1019,3 hPa 0,0 l/m 0 min 0 min 46 W/m 6,4 km/h (2 Bft) 93,62 %
19.09.2022 08:28 8,9 C 8,9 C 6,1 C 96 % 1019,4 hPa 0,0 l/m 0 min 0 min 65 W/m 6,4 km/h (2 Bft) 97,87 %
19.09.2022 08:30 8,9 C 8,9 C 6,1 C 96 % 1019,5 hPa 0,0 l/m 0 min 0 min 82 W/m 6,4 km/h (2 Bft) 97,87 %
19.09.2022 08:32 9,1 C 9,4 C 6,7 C 96 % 1019,4 hPa 0,0 l/m 0 min 0 min 84 W/m 6,4 km/h (2 Bft) 97,87 %
19.09.2022 08:34 9,1 C 9,4 C 6,7 C 96 % 1019,4 hPa 0,0 l/m 0 min 0 min 86 W/m 6,4 km/h (2 Bft) 97,87 %
19.09.2022 08:36 9,2 C 9,4 C 6,7 C 96 % 1019,5 hPa 0,0 l/m 0 min 0 min 84 W/m 6,4 km/h (2 Bft) 95,65 %
19.09.2022 08:38 9,3 C 9,4 C 6,7 C 96 % 1019,5 hPa 0,0 l/m 0 min 0 min 82 W/m 9,7 km/h (2 Bft) 97,87 %
19.09.2022 08:40 9,4 C 10,0 C 6,7 C 96 % 1019,6 hPa 0,0 l/m 0 min 0 min 81 W/m 12,9 km/h (3 Bft) 97,14 %
19.09.2022 08:42 9,5 C 10,0 C 7,2 C 96 % 1019,6 hPa 0,0 l/m 0 min 0 min 76 W/m 6,4 km/h (2 Bft) 97,87 %
19.09.2022 08:44 9,6 C 10,0 C 7,2 C 96 % 1019,6 hPa 0,0 l/m 0 min 0 min 73 W/m 9,7 km/h (2 Bft) 93,62 %
19.09.2022 08:46 9,6 C 10,0 C 7,2 C 96 % 1019,6 hPa 0,0 l/m 0 min 0 min 76 W/m 9,7 km/h (2 Bft) 95,74 %
19.09.2022 08:48 9,7 C 10,0 C 7,2 C 96 % 1019,6 hPa 0,0 l/m 0 min 0 min 79 W/m 3,2 km/h (1 Bft) 95,74 %
19.09.2022 08:50 9,8 C 10,0 C 7,2 C 96 % 1019,6 hPa 0,0 l/m 0 min 0 min 85 W/m 9,7 km/h (2 Bft) 96,55 %
19.09.2022 08:52 9,8 C 10,0 C 7,2 C 96 % 1019,7 hPa 0,0 l/m 0 min 0 min 87 W/m 9,7 km/h (2 Bft) 100,00 %
19.09.2022 08:54 9,8 C 10,0 C 7,2 C 96 % 1019,7 hPa 0,0 l/m 0 min 0 min 89 W/m 6,4 km/h (2 Bft) 97,87 %
19.09.2022 08:56 9,9 C 10,0 C 7,2 C 96 % 1019,7 hPa 0,0 l/m 0 min 0 min 92 W/m 6,4 km/h (2 Bft) 95,74 %
19.09.2022 08:58 10,0 C 10,0 C 7,2 C 96 % 1019,7 hPa 0,0 l/m 0 min 0 min 95 W/m 12,9 km/h (3 Bft) 95,74 %
19.09.2022 09:00 10,1 C 10,6 C 7,2 C 96 % 1019,8 hPa 0,0 l/m 0 min 0 min 115 W/m 6,4 km/h (2 Bft) 97,87 %
19.09.2022 09:02 10,1 C 10,6 C 7,2 C 96 % 1019,7 hPa 0,0 l/m 0 min 0 min 118 W/m 3,2 km/h (1 Bft) 97,87 %
19.09.2022 09:04 10,1 C 10,6 C 7,8 C 96 % 1019,8 hPa 0,0 l/m 0 min 0 min 111 W/m 6,4 km/h (2 Bft) 97,83 %
19.09.2022 09:06 10,2 C 10,6 C 7,8 C 96 % 1019,8 hPa 0,0 l/m 0 min 0 min 112 W/m 6,4 km/h (2 Bft) 96,61 %
19.09.2022 09:08 10,3 C 10,6 C 7,8 C 96 % 1019,8 hPa 0,0 l/m 0 min 0 min 113 W/m 6,4 km/h (2 Bft) 97,87 %
19.09.2022 09:10 10,3 C 10,6 C 7,8 C 96 % 1019,8 hPa 0,0 l/m 0 min 0 min 109 W/m 6,4 km/h (2 Bft) 97,14 %
19.09.2022 09:12 10,4 C 10,6 C 7,8 C 96 % 1019,8 hPa 0,0 l/m 0 min 0 min 108 W/m 6,4 km/h (2 Bft) 97,87 %
19.09.2022 09:14 10,4 C 10,6 C 7,8 C 96 % 1019,8 hPa 0,0 l/m 0 min 0 min 101 W/m 6,4 km/h (2 Bft) 97,87 %
19.09.2022 09:16 10,4 C 10,6 C 7,8 C 96 % 1019,9 hPa 0,0 l/m 0 min 0 min 93 W/m 6,4 km/h (2 Bft) 97,83 %
19.09.2022 09:18 10,5 C 10,6 C 7,8 C 95 % 1019,8 hPa 0,0 l/m 0 min 0 min 100 W/m 6,4 km/h (2 Bft) 95,74 %
19.09.2022 09:20 10,6 C 10,6 C 7,8 C 95 % 1019,8 hPa 0,0 l/m 0 min 0 min 111 W/m 6,4 km/h (2 Bft) 97,87 %
19.09.2022 09:22 10,6 C 10,6 C 7,8 C 95 % 1019,8 hPa 0,0 l/m 0 min 0 min 112 W/m 9,7 km/h (2 Bft) 97,87 %
19.09.2022 09:24 10,6 C 10,6 C 7,8 C 95 % 1019,9 hPa 0,0 l/m 0 min 0 min 136 W/m 6,4 km/h (2 Bft) 95,74 %
19.09.2022 09:26 10,7 C 11,1 C 7,8 C 95 % 1019,9 hPa 0,0 l/m 0 min 0 min 140 W/m 3,2 km/h (1 Bft) 95,74 %
19.09.2022 09:28 10,7 C 11,1 C 7,8 C 95 % 1019,9 hPa 0,0 l/m 0 min 0 min 119 W/m 6,4 km/h (2 Bft) 95,65 %
19.09.2022 09:30 10,8 C 11,1 C 7,8 C 95 % 1019,9 hPa 0,0 l/m 0 min 0 min 118 W/m 3,2 km/h (1 Bft) 97,87 %
19.09.2022 09:32 10,8 C 11,1 C 8,3 C 95 % 1019,9 hPa 0,0 l/m 0 min 0 min 129 W/m 6,4 km/h (2 Bft) 98,11 %
19.09.2022 09:34 10,9 C 11,1 C 8,3 C 95 % 1020,0 hPa 0,0 l/m 0 min 0 min 125 W/m 6,4 km/h (2 Bft) 97,87 %
19.09.2022 09:36 10,9 C 11,1 C 8,3 C 95 % 1020,0 hPa 0,0 l/m 0 min 0 min 105 W/m 6,4 km/h (2 Bft) 96,61 %
19.09.2022 09:38 11,0 C 11,1 C 8,3 C 95 % 1020,0 hPa 0,0 l/m 0 min 0 min 115 W/m 6,4 km/h (2 Bft) 100,00 %
19.09.2022 09:40 11,0 C 11,1 C 8,3 C 94 % 1020,0 hPa 0,0 l/m 0 min 0 min 121 W/m 12,9 km/h (3 Bft) 95,74 %
19.09.2022 09:42 11,1 C 11,1 C 8,3 C 94 % 1020,1 hPa 0,0 l/m 0 min 0 min 125 W/m 6,4 km/h (2 Bft) 97,83 %
19.09.2022 09:44 11,1 C 11,1 C 8,3 C 94 % 1020,1 hPa 0,0 l/m 0 min 0 min 128 W/m 6,4 km/h (2 Bft) 97,87 %
19.09.2022 09:46 11,1 C 11,1 C 8,3 C 94 % 1020,1 hPa 0,0 l/m 0 min 0 min 123 W/m 9,7 km/h (2 Bft) 97,87 %
19.09.2022 09:48 11,2 C 11,1 C 8,3 C 94 % 1020,2 hPa 0,0 l/m 0 min 0 min 115 W/m 6,4 km/h (2 Bft) 97,87 %
19.09.2022 09:50 11,2 C 11,1 C 8,3 C 94 % 1020,2 hPa 0,0 l/m 0 min 0 min 107 W/m 9,7 km/h (2 Bft) 97,87 %
19.09.2022 09:52 11,2 C 11,1 C 8,3 C 94 % 1020,2 hPa 0,0 l/m 0 min 0 min 118 W/m 6,4 km/h (2 Bft) 97,87 %
19.09.2022 09:54 11,3 C 11,1 C 8,3 C 94 % 1020,2 hPa 0,0 l/m 0 min 0 min 158 W/m 6,4 km/h (2 Bft) 97,83 %
19.09.2022 09:56 11,3 C 11,7 C 8,3 C 94 % 1020,3 hPa 0,0 l/m 0 min 0 min 187 W/m 6,4 km/h (2 Bft) 100,00 %
19.09.2022 09:58 11,4 C 11,7 C 8,9 C 94 % 1020,3 hPa 0,0 l/m 0 min 0 min 171 W/m 6,4 km/h (2 Bft) 95,74 %
19.09.2022 10:00 11,4 C 11,7 C 8,9 C 94 % 1020,3 hPa 0,0 l/m 0 min 0 min 176 W/m 6,4 km/h (2 Bft) 100,00 %
19.09.2022 10:02 11,5 C 12,2 C 8,9 C 94 % 1020,3 hPa 0,0 l/m 0 min 0 min 178 W/m 6,4 km/h (2 Bft) 100,00 %
19.09.2022 10:04 11,6 C 12,2 C 8,9 C 94 % 1020,3 hPa 0,0 l/m 0 min 0 min 172 W/m 12,9 km/h (3 Bft) 97,83 %
19.09.2022 10:06 11,7 C 12,2 C 8,9 C 93 % 1020,3 hPa 0,0 l/m 0 min 0 min 177 W/m 6,4 km/h (2 Bft) 100,00 %
19.09.2022 10:08 11,7 C 12,2 C 8,9 C 93 % 1020,3 hPa 0,0 l/m 0 min 0 min 188 W/m 12,9 km/h (3 Bft) 100,00 %
19.09.2022 10:10 11,8 C 12,2 C 8,9 C 93 % 1020,3 hPa 0,0 l/m 0 min 0 min 197 W/m 6,4 km/h (2 Bft) 100,00 %
19.09.2022 10:12 11,9 C 12,2 C 9,4 C 93 % 1020,4 hPa 0,0 l/m 0 min 0 min 196 W/m 16,1 km/h (3 Bft) 100,00 %
19.09.2022 10:14 11,9 C 12,2 C 9,4 C 93 % 1020,4 hPa 0,0 l/m 0 min 0 min 152 W/m 6,4 km/h (2 Bft) 100,00 %
19.09.2022 10:16 12,0 C 12,2 C 9,4 C 93 % 1020,4 hPa 0,0 l/m 0 min 0 min 149 W/m 9,7 km/h (2 Bft) 100,00 %
19.09.2022 10:18 12,1 C 12,2 C 9,4 C 92 % 1020,4 hPa 0,0 l/m 0 min 0 min 163 W/m 9,7 km/h (2 Bft) 100,00 %
19.09.2022 10:20 12,1 C 12,2 C 9,4 C 92 % 1020,4 hPa 0,0 l/m 0 min 0 min 179 W/m 6,4 km/h (2 Bft) 100,00 %
19.09.2022 10:22 12,2 C 12,2 C 9,4 C 92 % 1020,4 hPa 0,0 l/m 0 min 0 min 195 W/m 6,4 km/h (2 Bft) 100,00 %
19.09.2022 10:24 12,2 C 12,8 C 9,4 C 92 % 1020,4 hPa 0,0 l/m 0 min 0 min 207 W/m 6,4 km/h (2 Bft) 100,00 %
19.09.2022 10:26 12,3 C 12,8 C 9,4 C 92 % 1020,5 hPa 0,0 l/m 0 min 0 min 200 W/m 6,4 km/h (2 Bft) 100,00 %
19.09.2022 10:28 12,3 C 12,8 C 9,4 C 92 % 1020,5 hPa 0,0 l/m 0 min 0 min 182 W/m 9,7 km/h (2 Bft) 100,00 %
19.09.2022 10:30 12,4 C 12,8 C 9,4 C 91 % 1020,5 hPa 0,0 l/m 0 min 0 min 177 W/m 12,9 km/h (3 Bft) 100,00 %
19.09.2022 10:32 12,4 C 12,8 C 9,4 C 91 % 1020,5 hPa 0,0 l/m 0 min 0 min 170 W/m 6,4 km/h (2 Bft) 100,00 %
19.09.2022 10:34 12,4 C 12,8 C 9,4 C 91 % 1020,5 hPa 0,0 l/m 0 min 0 min 169 W/m 9,7 km/h (2 Bft) 100,00 %
19.09.2022 10:36 12,5 C 12,8 C 10,0 C 91 % 1020,6 hPa 0,0 l/m 0 min 0 min 191 W/m 6,4 km/h (2 Bft) 100,00 %
19.09.2022 10:38 12,6 C 12,8 C 10,0 C 91 % 1020,6 hPa 0,0 l/m 0 min 0 min 220 W/m 12,9 km/h (3 Bft) 100,00 %
19.09.2022 10:40 12,6 C 13,3 C 10,0 C 91 % 1020,6 hPa 0,0 l/m 0 min 0 min 211 W/m 6,4 km/h (2 Bft) 95,74 %
19.09.2022 10:42 12,7 C 13,3 C 10,0 C 90 % 1020,7 hPa 0,0 l/m 0 min 0 min 197 W/m 6,4 km/h (2 Bft) 53,49 %
19.09.2022 10:44 12,8 C 13,3 C 10,0 C 90 % 1020,7 hPa 0,0 l/m 0 min 0 min 168 W/m 16,1 km/h (3 Bft) 100,00 %
19.09.2022 10:46 12,8 C 13,3 C 10,0 C 90 % 1020,7 hPa 0,0 l/m 0 min 0 min 155 W/m 22,5 km/h (4 Bft) 97,87 %
19.09.2022 10:48 12,8 C 13,3 C 10,0 C 90 % 1020,7 hPa 0,0 l/m 0 min 0 min 149 W/m 16,1 km/h (3 Bft) 95,74 %
19.09.2022 10:50 12,9 C 13,3 C 10,0 C 89 % 1020,7 hPa 0,0 l/m 0 min 0 min 174 W/m 12,9 km/h (3 Bft) 97,87 %
19.09.2022 10:52 12,9 C 13,3 C 10,0 C 89 % 1020,8 hPa 0,0 l/m 0 min 0 min 194 W/m 12,9 km/h (3 Bft) 95,65 %
19.09.2022 10:54 13,0 C 13,3 C 10,0 C 89 % 1020,7 hPa 0,0 l/m 0 min 0 min 205 W/m 12,9 km/h (3 Bft) 97,87 %
19.09.2022 10:56 13,1 C 13,9 C 10,6 C 89 % 1020,8 hPa 0,0 l/m 0 min 0 min 246 W/m 16,1 km/h (3 Bft) 97,87 %
19.09.2022 10:58 13,2 C 13,9 C 10,6 C 89 % 1020,8 hPa 0,0 l/m 2 min 0 min 267 W/m 19,3 km/h (3 Bft) 95,74 %
19.09.2022 11:00 13,3 C 13,9 C 10,6 C 89 % 1020,7 hPa 0,0 l/m 2 min 0 min 273 W/m 6,4 km/h (2 Bft) 97,87 %
19.09.2022 11:02 13,3 C 13,9 C 10,6 C 89 % 1020,7 hPa 0,0 l/m 2 min 0 min 274 W/m 9,7 km/h (2 Bft) 95,74 %
19.09.2022 11:04 13,4 C 13,9 C 10,6 C 89 % 1020,8 hPa 0,0 l/m 0 min 0 min 244 W/m 16,1 km/h (3 Bft) 97,87 %
19.09.2022 11:06 13,4 C 13,9 C 10,6 C 89 % 1020,8 hPa 0,0 l/m 0 min 0 min 214 W/m 16,1 km/h (3 Bft) 97,87 %
19.09.2022 11:08 13,5 C 13,9 C 10,6 C 88 % 1020,8 hPa 0,0 l/m 0 min 0 min 215 W/m 12,9 km/h (3 Bft) 97,87 %
19.09.2022 11:10 13,6 C 13,9 C 10,6 C 88 % 1020,8 hPa 0,0 l/m 0 min 0 min 246 W/m 12,9 km/h (3 Bft) 97,87 %
19.09.2022 11:12 13,6 C 13,9 C 10,6 C 88 % 1020,8 hPa 0,0 l/m 0 min 0 min 263 W/m 6,4 km/h (2 Bft) 95,65 %
19.09.2022 11:14 13,6 C 14,4 C 11,1 C 88 % 1020,8 hPa 0,0 l/m 2 min 0 min 282 W/m 12,9 km/h (3 Bft) 97,87 %
19.09.2022 11:16 13,7 C 14,4 C 11,1 C 88 % 1020,8 hPa 0,0 l/m 2 min 0 min 313 W/m 9,7 km/h (2 Bft) 97,87 %
19.09.2022 11:18 13,8 C 14,4 C 11,1 C 88 % 1020,8 hPa 0,0 l/m 2 min 0 min 279 W/m 9,7 km/h (2 Bft) 97,87 %
19.09.2022 11:20 13,9 C 14,4 C 11,1 C 88 % 1020,8 hPa 0,0 l/m 0 min 0 min 265 W/m 12,9 km/h (3 Bft) 95,74 %
19.09.2022 11:22 14,0 C 15,0 C 11,1 C 88 % 1020,8 hPa 0,0 l/m 2 min 0 min 301 W/m 19,3 km/h (3 Bft) 97,87 %
19.09.2022 11:24 14,1 C 15,6 C 11,7 C 88 % 1020,8 hPa 0,0 l/m 2 min 0 min 323 W/m 29,0 km/h (5 Bft) 95,65 %
19.09.2022 11:26 14,2 C 16,1 C 11,7 C 87 % 1020,8 hPa 0,0 l/m 2 min 0 min 280 W/m 22,5 km/h (4 Bft) 95,74 %
19.09.2022 11:28 14,3 C 16,1 C 11,7 C 86 % 1020,7 hPa 0,0 l/m 2 min 0 min 299 W/m 12,9 km/h (3 Bft) 97,87 %
19.09.2022 11:30 14,3 C 16,7 C 11,7 C 86 % 1020,7 hPa 0,0 l/m 2 min 0 min 406 W/m 12,9 km/h (3 Bft) 97,87 %
19.09.2022 11:32 14,4 C 16,1 C 12,2 C 86 % 1020,7 hPa 0,0 l/m 2 min 0 min 305 W/m 9,7 km/h (2 Bft) 95,74 %
19.09.2022 11:34 14,6 C 16,1 C 12,2 C 86 % 1020,7 hPa 0,0 l/m 2 min 0 min 290 W/m 12,9 km/h (3 Bft) 97,87 %
19.09.2022 11:36 14,6 C 15,6 C 12,2 C 86 % 1020,8 hPa 0,0 l/m 2 min 0 min 281 W/m 12,9 km/h (3 Bft) 97,83 %
19.09.2022 11:38 14,6 C 15,6 C 11,7 C 85 % 1020,7 hPa 0,0 l/m 0 min 0 min 202 W/m 16,1 km/h (3 Bft) 97,87 %
19.09.2022 11:40 14,6 C 15,0 C 11,7 C 84 % 1020,8 hPa 0,0 l/m 0 min 0 min 229 W/m 9,7 km/h (2 Bft) 95,74 %
19.09.2022 11:42 14,6 C 15,6 C 11,7 C 83 % 1020,8 hPa 0,0 l/m 2 min 0 min 297 W/m 16,1 km/h (3 Bft) 97,87 %
19.09.2022 11:44 14,7 C 15,6 C 11,7 C 83 % 1020,8 hPa 0,0 l/m 2 min 0 min 382 W/m 19,3 km/h (3 Bft) 97,87 %
19.09.2022 11:46 14,7 C 16,1 C 12,2 C 83 % 1020,8 hPa 0,0 l/m 0 min 0 min 216 W/m 16,1 km/h (3 Bft) 97,87 %
19.09.2022 11:48 14,8 C 16,7 C 12,8 C 84 % 1020,8 hPa 0,0 l/m 0 min 0 min 216 W/m 16,1 km/h (3 Bft) 97,83 %
19.09.2022 11:50 14,8 C 16,1 C 12,8 C 84 % 1020,7 hPa 0,0 l/m 0 min 0 min 255 W/m 19,3 km/h (3 Bft) 93,62 %
19.09.2022 11:52 14,9 C 16,7 C 12,8 C 83 % 1020,7 hPa 0,0 l/m 2 min 0 min 531 W/m 19,3 km/h (3 Bft) 93,62 %
19.09.2022 11:54 14,9 C 17,8 C 14,4 C 83 % 1020,8 hPa 0,0 l/m 2 min 0 min 704 W/m 16,1 km/h (3 Bft) 95,74 %
19.09.2022 11:56 15,1 C 18,9 C 15,0 C 83 % 1020,7 hPa 0,0 l/m 2 min 0 min 739 W/m 16,1 km/h (3 Bft) 93,62 %
19.09.2022 11:58 15,2 C 18,3 C 15,0 C 83 % 1020,8 hPa 0,0 l/m 2 min 0 min 627 W/m 19,3 km/h (3 Bft) 95,74 %
19.09.2022 12:00 15,2 C 17,2 C 13,9 C 82 % 1020,8 hPa 0,0 l/m 0 min 0 min 292 W/m 16,1 km/h (3 Bft) 95,65 %
19.09.2022 12:02 15,3 C 17,2 C 13,9 C 81 % 1020,8 hPa 0,0 l/m 2 min 0 min 378 W/m 16,1 km/h (3 Bft) 93,62 %
19.09.2022 12:04 15,3 C 18,3 C 13,9 C 81 % 1020,7 hPa 0,0 l/m 2 min 0 min 650 W/m 19,3 km/h (3 Bft) 97,87 %
19.09.2022 12:08 15,4 C 20,6 C 13,9 C 81 % 1020,7 hPa 0,0 l/m 4 min 0 min 732 W/m 19,3 km/h (3 Bft) 97,73 %
19.09.2022 12:10 15,6 C 21,1 C 13,9 C 80 % 1020,7 hPa 0,0 l/m 2 min 0 min 800 W/m 19,3 km/h (3 Bft) 95,74 %
19.09.2022 12:12 15,6 C 18,3 C 13,3 C 79 % 1020,7 hPa 0,0 l/m 2 min 0 min 487 W/m 16,1 km/h (3 Bft) 97,92 %
19.09.2022 12:14 15,6 C 18,9 C 13,3 C 79 % 1020,6 hPa 0,0 l/m 0 min 0 min 234 W/m 16,1 km/h (3 Bft) 97,87 %
19.09.2022 12:16 15,7 C 18,3 C 12,8 C 80 % 1020,6 hPa 0,0 l/m 2 min 0 min 553 W/m 12,9 km/h (3 Bft) 97,83 %
19.09.2022 12:18 15,7 C 16,7 C 12,8 C 80 % 1020,6 hPa 0,0 l/m 0 min 0 min 139 W/m 19,3 km/h (3 Bft) 97,87 %
19.09.2022 12:20 15,6 C 16,1 C 12,2 C 79 % 1020,7 hPa 0,0 l/m 0 min 0 min 124 W/m 16,1 km/h (3 Bft) 97,87 %
19.09.2022 12:22 15,5 C 15,6 C 12,2 C 80 % 1020,7 hPa 0,0 l/m 0 min 0 min 118 W/m 12,9 km/h (3 Bft) 97,87 %
19.09.2022 12:24 15,4 C 15,0 C 11,7 C 79 % 1020,7 hPa 0,0 l/m 0 min 0 min 144 W/m 19,3 km/h (3 Bft) 97,87 %
19.09.2022 12:26 15,4 C 15,6 C 11,7 C 80 % 1020,6 hPa 0,0 l/m 2 min 0 min 406 W/m 12,9 km/h (3 Bft) 97,87 %
19.09.2022 12:28 15,4 C 16,1 C 12,2 C 81 % 1020,6 hPa 0,0 l/m 2 min 0 min 418 W/m 12,9 km/h (3 Bft) 97,83 %
19.09.2022 12:30 15,6 C 16,7 C 12,2 C 80 % 1020,6 hPa 0,0 l/m 2 min 0 min 345 W/m 12,9 km/h (3 Bft) 97,87 %
19.09.2022 12:32 15,7 C 16,7 C 12,8 C 80 % 1020,6 hPa 0,0 l/m 2 min 0 min 315 W/m 12,9 km/h (3 Bft) 95,74 %
19.09.2022 12:34 15,8 C 16,7 C 12,8 C 80 % 1020,7 hPa 0,0 l/m 0 min 0 min 205 W/m 12,9 km/h (3 Bft) 97,87 %
19.09.2022 12:36 15,8 C 16,1 C 12,2 C 79 % 1020,7 hPa 0,0 l/m 0 min 2 min 114 W/m 19,3 km/h (3 Bft) 96,61 %
19.09.2022 12:38 15,8 C 15,6 C 12,2 C 79 % 1020,7 hPa 0,0 l/m 0 min 2 min 69 W/m 6,4 km/h (2 Bft) 100,00 %
19.09.2022 12:40 15,7 C 15,0 C 11,7 C 80 % 1020,7 hPa 0,0 l/m 0 min 2 min 69 W/m 9,7 km/h (2 Bft) 93,48 %
19.09.2022 12:42 15,6 C 14,4 C 11,1 C 80 % 1020,7 hPa 0,0 l/m 0 min 0 min 103 W/m 16,1 km/h (3 Bft) 97,92 %
19.09.2022 12:44 15,4 C 14,4 C 11,1 C 80 % 1020,6 hPa 0,0 l/m 0 min 2 min 156 W/m 16,1 km/h (3 Bft) 97,87 %
19.09.2022 12:46 15,2 C 14,4 C 11,1 C 81 % 1020,7 hPa 0,0 l/m 0 min 0 min 207 W/m 16,1 km/h (3 Bft) 97,87 %
19.09.2022 12:48 15,2 C 15,0 C 11,7 C 82 % 1020,7 hPa 0,0 l/m 0 min 0 min 239 W/m 12,9 km/h (3 Bft) 97,92 %
19.09.2022 12:50 15,2 C 15,6 C 11,7 C 82 % 1020,6 hPa 0,0 l/m 0 min 0 min 237 W/m 22,5 km/h (4 Bft) 97,87 %
19.09.2022 12:52 15,3 C 15,6 C 11,7 C 82 % 1020,6 hPa 0,0 l/m 0 min 2 min 245 W/m 22,5 km/h (4 Bft) 97,83 %
19.09.2022 12:54 15,2 C 15,6 C 11,7 C 81 % 1020,6 hPa 0,0 l/m 0 min 0 min 262 W/m 12,9 km/h (3 Bft) 97,87 %
19.09.2022 12:56 15,2 C 15,6 C 11,7 C 81 % 1020,5 hPa 0,0 l/m 0 min 0 min 262 W/m 12,9 km/h (3 Bft) 97,92 %
19.09.2022 12:58 15,2 C 15,6 C 12,2 C 81 % 1020,5 hPa 0,0 l/m 0 min 0 min 267 W/m 12,9 km/h (3 Bft) 97,87 %
19.09.2022 13:00 15,3 C 16,1 C 12,2 C 81 % 1020,4 hPa 0,0 l/m 0 min 0 min 283 W/m 16,1 km/h (3 Bft) 97,87 %
19.09.2022 13:02 15,4 C 16,1 C 12,2 C 81 % 1020,5 hPa 0,0 l/m 0 min 0 min 277 W/m 16,1 km/h (3 Bft) 97,92 %
19.09.2022 13:04 15,5 C 16,1 C 12,2 C 80 % 1020,5 hPa 0,0 l/m 0 min 0 min 252 W/m 9,7 km/h (2 Bft) 97,87 %
19.09.2022 13:06 15,6 C 16,1 C 12,2 C 80 % 1020,5 hPa 0,0 l/m 0 min 0 min 311 W/m 12,9 km/h (3 Bft) 100,00 %
19.09.2022 13:08 15,7 C 16,7 C 12,8 C 80 % 1020,4 hPa 0,0 l/m 0 min 0 min 305 W/m 16,1 km/h (3 Bft) 100,00 %
19.09.2022 13:10 15,8 C 16,1 C 12,8 C 79 % 1020,4 hPa 0,0 l/m 0 min 0 min 210 W/m 29,0 km/h (5 Bft) 100,00 %
19.09.2022 13:12 15,9 C 16,1 C 12,2 C 77 % 1020,5 hPa 0,0 l/m 0 min 0 min 220 W/m 16,1 km/h (3 Bft) 100,00 %
19.09.2022 13:14 15,9 C 16,1 C 12,2 C 78 % 1020,5 hPa 0,0 l/m 0 min 0 min 239 W/m 9,7 km/h (2 Bft) 100,00 %
19.09.2022 13:16 15,9 C 16,1 C 12,2 C 78 % 1020,5 hPa 0,0 l/m 0 min 0 min 231 W/m 22,5 km/h (4 Bft) 97,87 %
19.09.2022 13:18 15,9 C 15,6 C 12,2 C 77 % 1020,5 hPa 0,0 l/m 0 min 0 min 235 W/m 9,7 km/h (2 Bft) 97,87 %
19.09.2022 13:20 15,9 C 16,1 C 12,2 C 77 % 1020,4 hPa 0,0 l/m 0 min 0 min 269 W/m 16,1 km/h (3 Bft) 95,74 %
19.09.2022 13:22 15,9 C 16,1 C 12,2 C 77 % 1020,4 hPa 0,0 l/m 0 min 0 min 285 W/m 16,1 km/h (3 Bft) 97,83 %
19.09.2022 13:24 16,1 C 16,7 C 12,8 C 77 % 1020,4 hPa 0,0 l/m 0 min 0 min 301 W/m 16,1 km/h (3 Bft) 97,87 %
19.09.2022 13:26 16,2 C 16,7 C 12,8 C 76 % 1020,4 hPa 0,0 l/m 0 min 0 min 270 W/m 22,5 km/h (4 Bft) 97,87 %
19.09.2022 13:28 16,3 C 16,7 C 12,8 C 74 % 1020,5 hPa 0,0 l/m 0 min 0 min 241 W/m 19,3 km/h (3 Bft) 97,87 %
19.09.2022 13:30 16,3 C 16,1 C 12,8 C 74 % 1020,5 hPa 0,0 l/m 0 min 0 min 300 W/m 22,5 km/h (4 Bft) 97,87 %
19.09.2022 13:32 16,3 C 16,7 C 12,8 C 74 % 1020,5 hPa 0,0 l/m 2 min 0 min 323 W/m 22,5 km/h (4 Bft) 95,74 %
19.09.2022 13:34 16,3 C 16,7 C 12,8 C 75 % 1020,5 hPa 0,0 l/m 2 min 0 min 323 W/m 16,1 km/h (3 Bft) 97,83 %
19.09.2022 13:36 16,4 C 16,7 C 12,8 C 75 % 1020,4 hPa 0,0 l/m 2 min 0 min 317 W/m 19,3 km/h (3 Bft) 95,74 %
19.09.2022 13:38 16,4 C 16,7 C 12,8 C 75 % 1020,5 hPa 0,0 l/m 0 min 0 min 313 W/m 12,9 km/h (3 Bft) 91,49 %
19.09.2022 13:40 16,4 C 16,7 C 12,8 C 75 % 1020,5 hPa 0,0 l/m 2 min 0 min 329 W/m 22,5 km/h (4 Bft) 93,62 %
19.09.2022 13:42 16,5 C 16,7 C 12,8 C 75 % 1020,6 hPa 0,0 l/m 0 min 0 min 158 W/m 19,3 km/h (3 Bft) 95,74 %
19.09.2022 13:44 16,4 C 16,1 C 12,2 C 75 % 1021,0 hPa 0,0 l/m 0 min 0 min 64 W/m 29,0 km/h (5 Bft) 95,74 %
19.09.2022 13:46 16,0 C 14,4 C 11,1 C 73 % 1021,1 hPa 0,0 l/m 0 min 0 min 31 W/m 35,4 km/h (5 Bft) 93,48 %
19.09.2022 13:48 15,6 C 13,3 C 10,0 C 75 % 1021,1 hPa 0,2 l/m 0 min 2 min 25 W/m 22,5 km/h (4 Bft) 95,74 %
19.09.2022 13:50 15,2 C 12,8 C 8,9 C 78 % 1021,2 hPa 0,6 l/m 0 min 2 min 25 W/m 22,5 km/h (4 Bft) 95,74 %
19.09.2022 13:52 14,7 C 11,7 C 7,8 C 79 % 1021,3 hPa 0,4 l/m 0 min 2 min 30 W/m 16,1 km/h (3 Bft) 93,62 %
19.09.2022 13:54 14,3 C 11,7 C 7,8 C 81 % 1021,3 hPa 0,2 l/m 0 min 2 min 33 W/m 29,0 km/h (5 Bft) 95,74 %
19.09.2022 13:56 13,8 C 11,1 C 7,2 C 83 % 1021,4 hPa 0,2 l/m 0 min 2 min 36 W/m 19,3 km/h (3 Bft) 93,62 %
19.09.2022 13:58 13,4 C 11,1 C 7,2 C 84 % 1021,3 hPa 0,6 l/m 0 min 2 min 44 W/m 16,1 km/h (3 Bft) 95,65 %
19.09.2022 14:00 13,2 C 11,1 C 7,2 C 85 % 1021,3 hPa 0,2 l/m 0 min 2 min 49 W/m 19,3 km/h (3 Bft) 97,87 %
19.09.2022 14:02 13,0 C 10,6 C 7,2 C 86 % 1021,3 hPa 0,0 l/m 0 min 2 min 50 W/m 19,3 km/h (3 Bft) 95,74 %
19.09.2022 14:04 12,8 C 10,6 C 7,2 C 86 % 1021,3 hPa 0,0 l/m 0 min 2 min 60 W/m 19,3 km/h (3 Bft) 97,87 %
19.09.2022 14:06 12,7 C 10,6 C 7,2 C 87 % 1021,2 hPa 0,0 l/m 0 min 2 min 67 W/m 19,3 km/h (3 Bft) 95,74 %
19.09.2022 14:08 12,6 C 10,6 C 7,2 C 88 % 1021,2 hPa 0,2 l/m 0 min 2 min 68 W/m 6,4 km/h (2 Bft) 97,87 %
19.09.2022 14:10 12,4 C 10,6 C 7,2 C 88 % 1021,2 hPa 0,0 l/m 0 min 2 min 74 W/m 12,9 km/h (3 Bft) 100,00 %
19.09.2022 14:12 12,4 C 11,1 C 7,2 C 89 % 1021,1 hPa 0,0 l/m 0 min 0 min 91 W/m 12,9 km/h (3 Bft) 97,87 %
19.09.2022 14:14 12,3 C 11,1 C 7,2 C 89 % 1021,1 hPa 0,0 l/m 0 min 0 min 115 W/m 9,7 km/h (2 Bft) 100,00 %
19.09.2022 14:16 12,3 C 11,1 C 7,8 C 90 % 1021,0 hPa 0,0 l/m 0 min 0 min 140 W/m 9,7 km/h (2 Bft) 100,00 %
19.09.2022 14:18 12,3 C 11,1 C 7,8 C 90 % 1021,0 hPa 0,0 l/m 0 min 0 min 152 W/m 6,4 km/h (2 Bft) 100,00 %
19.09.2022 14:20 12,3 C 11,7 C 7,8 C 91 % 1021,0 hPa 0,0 l/m 0 min 0 min 156 W/m 6,4 km/h (2 Bft) 97,87 %
19.09.2022 14:22 12,3 C 11,7 C 7,8 C 91 % 1021,1 hPa 0,0 l/m 0 min 0 min 150 W/m 3,2 km/h (1 Bft) 100,00 %
19.09.2022 14:24 12,3 C 11,7 C 7,8 C 92 % 1021,1 hPa 0,0 l/m 0 min 0 min 136 W/m 6,4 km/h (2 Bft) 100,00 %
19.09.2022 14:26 12,4 C 11,7 C 7,8 C 92 % 1021,1 hPa 0,0 l/m 0 min 0 min 129 W/m 6,4 km/h (2 Bft) 100,00 %
19.09.2022 14:28 12,4 C 11,7 C 8,3 C 92 % 1021,1 hPa 0,0 l/m 0 min 0 min 135 W/m 6,4 km/h (2 Bft) 100,00 %
19.09.2022 14:30 12,4 C 11,7 C 7,8 C 92 % 1021,1 hPa 0,0 l/m 0 min 0 min 148 W/m 6,4 km/h (2 Bft) 100,00 %
19.09.2022 14:32 12,5 C 12,2 C 8,3 C 93 % 1021,1 hPa 0,0 l/m 0 min 0 min 175 W/m 3,2 km/h (1 Bft) 100,00 %
19.09.2022 14:34 12,6 C 12,2 C 8,3 C 93 % 1021,1 hPa 0,0 l/m 0 min 0 min 181 W/m 3,2 km/h (1 Bft) 100,00 %
19.09.2022 14:36 12,6 C 12,2 C 8,3 C 93 % 1021,1 hPa 0,0 l/m 0 min 0 min 183 W/m 3,2 km/h (1 Bft) 100,00 %
19.09.2022 14:38 12,7 C 12,2 C 8,3 C 93 % 1021,1 hPa 0,0 l/m 0 min 0 min 195 W/m 9,7 km/h (2 Bft) 100,00 %
19.09.2022 14:40 12,7 C 12,8 C 8,3 C 93 % 1021,2 hPa 0,0 l/m 0 min 0 min 196 W/m 9,7 km/h (2 Bft) 100,00 %
19.09.2022 14:42 12,8 C 12,8 C 8,3 C 93 % 1021,1 hPa 0,0 l/m 0 min 0 min 195 W/m 6,4 km/h (2 Bft) 100,00 %
19.09.2022 14:44 12,8 C 12,8 C 8,3 C 93 % 1021,1 hPa 0,0 l/m 0 min 0 min 200 W/m 9,7 km/h (2 Bft) 100,00 %
19.09.2022 14:46 12,8 C 12,8 C 8,3 C 93 % 1021,1 hPa 0,0 l/m 0 min 0 min 213 W/m 6,4 km/h (2 Bft) 97,87 %
19.09.2022 14:48 12,8 C 12,8 C 8,3 C 93 % 1021,1 hPa 0,0 l/m 0 min 0 min 215 W/m 6,4 km/h (2 Bft) 100,00 %
19.09.2022 14:50 12,9 C 12,8 C 8,9 C 94 % 1021,1 hPa 0,0 l/m 0 min 0 min 218 W/m 6,4 km/h (2 Bft) 100,00 %
19.09.2022 14:52 12,9 C 12,8 C 8,9 C 94 % 1021,1 hPa 0,0 l/m 0 min 0 min 213 W/m 6,4 km/h (2 Bft) 97,83 %
19.09.2022 14:54 13,0 C 12,8 C 8,9 C 94 % 1021,1 hPa 0,0 l/m 0 min 0 min 205 W/m 6,4 km/h (2 Bft) 95,74 %
19.09.2022 14:56 13,1 C 12,8 C 8,9 C 94 % 1021,1 hPa 0,0 l/m 0 min 0 min 207 W/m 9,7 km/h (2 Bft) 97,87 %
19.09.2022 14:58 13,1 C 12,8 C 8,9 C 94 % 1021,1 hPa 0,0 l/m 0 min 0 min 215 W/m 9,7 km/h (2 Bft) 100,00 %
19.09.2022 15:00 13,1 C 12,8 C 8,9 C 94 % 1021,1 hPa 0,0 l/m 0 min 0 min 215 W/m 12,9 km/h (3 Bft) 93,62 %
19.09.2022 15:02 13,1 C 13,3 C 8,9 C 94 % 1021,0 hPa 0,0 l/m 0 min 0 min 235 W/m 9,7 km/h (2 Bft) 100,00 %
19.09.2022 15:04 13,1 C 13,3 C 8,9 C 94 % 1021,0 hPa 0,0 l/m 0 min 0 min 267 W/m 6,4 km/h (2 Bft) 97,83 %
19.09.2022 15:06 13,2 C 13,3 C 8,9 C 94 % 1021,0 hPa 0,0 l/m 0 min 0 min 228 W/m 12,9 km/h (3 Bft) 100,00 %
19.09.2022 15:08 13,2 C 13,3 C 8,9 C 94 % 1021,0 hPa 0,0 l/m 0 min 0 min 208 W/m 12,9 km/h (3 Bft) 100,00 %
19.09.2022 15:10 13,2 C 13,3 C 8,9 C 94 % 1021,0 hPa 0,0 l/m 0 min 0 min 245 W/m 12,9 km/h (3 Bft) 100,00 %
19.09.2022 15:12 13,3 C 13,3 C 8,9 C 94 % 1021,0 hPa 0,0 l/m 2 min 0 min 311 W/m 12,9 km/h (3 Bft) 100,00 %
19.09.2022 15:14 13,4 C 13,9 C 8,9 C 94 % 1021,0 hPa 0,0 l/m 2 min 0 min 330 W/m 12,9 km/h (3 Bft) 97,83 %
19.09.2022 15:16 13,5 C 13,9 C 8,9 C 94 % 1021,0 hPa 0,0 l/m 2 min 0 min 322 W/m 9,7 km/h (2 Bft) 97,87 %
19.09.2022 15:18 13,6 C 13,9 C 9,4 C 94 % 1021,0 hPa 0,0 l/m 2 min 0 min 423 W/m 6,4 km/h (2 Bft) 97,87 %
19.09.2022 15:20 13,7 C 14,4 C 9,4 C 94 % 1021,0 hPa 0,0 l/m 2 min 0 min 379 W/m 6,4 km/h (2 Bft) 95,74 %
19.09.2022 15:22 13,9 C 14,4 C 9,4 C 94 % 1020,9 hPa 0,0 l/m 2 min 0 min 339 W/m 16,1 km/h (3 Bft) 97,87 %
19.09.2022 15:24 14,0 C 15,0 C 9,4 C 93 % 1020,9 hPa 0,0 l/m 2 min 0 min 506 W/m 22,5 km/h (4 Bft) 95,74 %
19.09.2022 15:26 14,2 C 15,0 C 9,4 C 92 % 1021,0 hPa 0,0 l/m 2 min 0 min 791 W/m 25,7 km/h (4 Bft) 95,65 %
19.09.2022 15:28 14,3 C 15,0 C 8,9 C 92 % 1021,0 hPa 0,0 l/m 2 min 0 min 362 W/m 22,5 km/h (4 Bft) 97,87 %
19.09.2022 15:30 14,3 C 15,6 C 9,4 C 90 % 1020,9 hPa 0,0 l/m 2 min 0 min 427 W/m 22,5 km/h (4 Bft) 93,62 %
19.09.2022 15:32 14,4 C 15,6 C 9,4 C 90 % 1020,9 hPa 0,0 l/m 2 min 0 min 645 W/m 29,0 km/h (5 Bft) 97,92 %
19.09.2022 15:34 14,6 C 15,6 C 9,4 C 89 % 1021,0 hPa 0,0 l/m 2 min 0 min 723 W/m 19,3 km/h (3 Bft) 93,62 %
19.09.2022 15:36 14,7 C 16,1 C 9,4 C 88 % 1020,9 hPa 0,0 l/m 2 min 0 min 339 W/m 16,1 km/h (3 Bft) 93,62 %
19.09.2022 15:38 14,8 C 16,1 C 9,4 C 87 % 1020,9 hPa 0,0 l/m 2 min 2 min 377 W/m 22,5 km/h (4 Bft) 95,65 %
19.09.2022 15:40 14,8 C 16,1 C 9,4 C 87 % 1020,9 hPa 0,0 l/m 2 min 2 min 362 W/m 22,5 km/h (4 Bft) 95,74 %
19.09.2022 15:42 14,8 C 15,6 C 8,9 C 84 % 1020,9 hPa 0,0 l/m 2 min 0 min 346 W/m 16,1 km/h (3 Bft) 95,74 %
19.09.2022 15:44 14,8 C 15,6 C 9,4 C 84 % 1020,9 hPa 0,0 l/m 2 min 0 min 363 W/m 16,1 km/h (3 Bft) 93,62 %
19.09.2022 15:46 14,8 C 15,6 C 9,4 C 84 % 1020,9 hPa 0,0 l/m 2 min 0 min 360 W/m 16,1 km/h (3 Bft) 91,49 %
19.09.2022 15:48 14,9 C 15,6 C 9,4 C 84 % 1020,8 hPa 0,0 l/m 2 min 0 min 362 W/m 19,3 km/h (3 Bft) 95,74 %
19.09.2022 15:50 15,0 C 15,6 C 9,4 C 84 % 1020,8 hPa 0,0 l/m 0 min 0 min 254 W/m 16,1 km/h (3 Bft) 95,65 %
19.09.2022 15:52 15,1 C 15,6 C 9,4 C 84 % 1020,9 hPa 0,0 l/m 0 min 0 min 211 W/m 16,1 km/h (3 Bft) 95,74 %
19.09.2022 15:54 15,1 C 15,0 C 9,4 C 83 % 1020,8 hPa 0,0 l/m 0 min 0 min 214 W/m 22,5 km/h (4 Bft) 93,62 %
19.09.2022 15:56 15,1 C 15,0 C 9,4 C 82 % 1020,8 hPa 0,0 l/m 0 min 0 min 228 W/m 16,1 km/h (3 Bft) 95,74 %
19.09.2022 15:58 15,0 C 15,0 C 9,4 C 83 % 1020,8 hPa 0,0 l/m 0 min 0 min 198 W/m 16,1 km/h (3 Bft) 93,62 %
19.09.2022 16:00 14,9 C 14,4 C 8,9 C 82 % 1020,8 hPa 0,0 l/m 0 min 0 min 185 W/m 16,1 km/h (3 Bft) 95,65 %
19.09.2022 16:02 14,9 C 14,4 C 8,9 C 82 % 1020,8 hPa 0,0 l/m 0 min 0 min 184 W/m 16,1 km/h (3 Bft) 91,49 %
19.09.2022 16:04 14,8 C 14,4 C 8,9 C 82 % 1020,8 hPa 0,0 l/m 0 min 0 min 182 W/m 12,9 km/h (3 Bft) 93,62 %
19.09.2022 16:06 14,8 C 14,4 C 8,9 C 82 % 1020,8 hPa 0,0 l/m 0 min 0 min 206 W/m 6,4 km/h (2 Bft) 93,62 %
19.09.2022 16:08 14,7 C 14,4 C 8,9 C 82 % 1020,8 hPa 0,0 l/m 0 min 0 min 232 W/m 6,4 km/h (2 Bft) 95,74 %
19.09.2022 16:10 14,7 C 14,4 C 8,9 C 82 % 1020,7 hPa 0,0 l/m 0 min 0 min 229 W/m 6,4 km/h (2 Bft) 97,87 %
19.09.2022 16:12 14,7 C 14,4 C 8,9 C 83 % 1020,7 hPa 0,0 l/m 0 min 0 min 223 W/m 16,1 km/h (3 Bft) 97,83 %
19.09.2022 16:14 14,7 C 15,0 C 8,9 C 82 % 1020,7 hPa 0,0 l/m 2 min 0 min 244 W/m 16,1 km/h (3 Bft) 97,87 %
19.09.2022 16:16 14,7 C 15,0 C 8,9 C 82 % 1020,8 hPa 0,0 l/m 2 min 0 min 352 W/m 9,7 km/h (2 Bft) 95,74 %
19.09.2022 16:18 14,8 C 15,6 C 9,4 C 82 % 1020,7 hPa 0,0 l/m 2 min 0 min 388 W/m 12,9 km/h (3 Bft) 97,87 %
19.09.2022 16:20 14,9 C 15,6 C 9,4 C 82 % 1020,7 hPa 0,0 l/m 2 min 0 min 636 W/m 6,4 km/h (2 Bft) 97,87 %
19.09.2022 16:22 15,1 C 15,6 C 9,4 C 83 % 1020,7 hPa 0,0 l/m 2 min 0 min 521 W/m 6,4 km/h (2 Bft) 97,87 %
19.09.2022 16:24 15,1 C 15,6 C 10,0 C 82 % 1020,7 hPa 0,0 l/m 2 min 0 min 263 W/m 12,9 km/h (3 Bft) 97,83 %
19.09.2022 16:26 15,1 C 15,6 C 10,6 C 81 % 1020,7 hPa 0,0 l/m 2 min 0 min 274 W/m 19,3 km/h (3 Bft) 95,74 %
19.09.2022 16:28 15,1 C 15,6 C 10,6 C 80 % 1020,7 hPa 0,0 l/m 0 min 0 min 209 W/m 22,5 km/h (4 Bft) 97,87 %
19.09.2022 16:30 15,1 C 15,0 C 11,1 C 79 % 1020,7 hPa 0,0 l/m 0 min 0 min 180 W/m 19,3 km/h (3 Bft) 97,87 %
19.09.2022 16:32 15,1 C 15,0 C 11,1 C 77 % 1020,7 hPa 0,0 l/m 0 min 0 min 164 W/m 19,3 km/h (3 Bft) 95,83 %
19.09.2022 16:34 15,1 C 15,0 C 11,1 C 78 % 1020,7 hPa 0,0 l/m 0 min 0 min 168 W/m 6,4 km/h (2 Bft) 97,87 %
19.09.2022 16:36 15,0 C 15,0 C 11,1 C 78 % 1020,7 hPa 0,0 l/m 0 min 0 min 206 W/m 19,3 km/h (3 Bft) 97,83 %
19.09.2022 16:38 15,0 C 15,0 C 11,1 C 78 % 1020,7 hPa 0,0 l/m 2 min 0 min 249 W/m 19,3 km/h (3 Bft) 97,87 %
19.09.2022 16:40 15,1 C 15,6 C 11,1 C 78 % 1020,7 hPa 0,0 l/m 2 min 0 min 266 W/m 12,9 km/h (3 Bft) 97,92 %
19.09.2022 16:42 15,1 C 15,6 C 11,1 C 79 % 1020,7 hPa 0,0 l/m 2 min 0 min 267 W/m 19,3 km/h (3 Bft) 97,87 %
19.09.2022 16:44 15,2 C 15,6 C 11,1 C 78 % 1020,6 hPa 0,0 l/m 2 min 0 min 298 W/m 9,7 km/h (2 Bft) 97,87 %
19.09.2022 16:46 15,2 C 16,7 C 11,1 C 78 % 1020,6 hPa 0,0 l/m 2 min 0 min 506 W/m 19,3 km/h (3 Bft) 100,00 %
19.09.2022 16:48 15,3 C 17,2 C 11,7 C 78 % 1020,6 hPa 0,0 l/m 2 min 0 min 519 W/m 22,5 km/h (4 Bft) 97,83 %
19.09.2022 16:50 15,4 C 17,8 C 11,7 C 78 % 1020,6 hPa 0,0 l/m 2 min 0 min 501 W/m 29,0 km/h (5 Bft) 100,00 %
19.09.2022 16:52 15,6 C 18,3 C 11,7 C 78 % 1020,6 hPa 0,0 l/m 2 min 0 min 507 W/m 16,1 km/h (3 Bft) 97,87 %
19.09.2022 16:54 15,7 C 18,9 C 11,7 C 77 % 1020,6 hPa 0,0 l/m 2 min 0 min 532 W/m 19,3 km/h (3 Bft) 100,00 %
19.09.2022 16:56 15,8 C 18,3 C 11,7 C 77 % 1020,6 hPa 0,0 l/m 2 min 0 min 499 W/m 22,5 km/h (4 Bft) 100,00 %
19.09.2022 16:58 15,8 C 16,7 C 11,7 C 76 % 1020,5 hPa 0,0 l/m 2 min 0 min 221 W/m 32,2 km/h (5 Bft) 100,00 %
19.09.2022 17:00 15,8 C 16,1 C 11,7 C 75 % 1020,6 hPa 0,0 l/m 0 min 0 min 144 W/m 25,7 km/h (4 Bft) 100,00 %
19.09.2022 17:02 15,7 C 15,6 C 11,1 C 75 % 1020,6 hPa 0,0 l/m 0 min 0 min 135 W/m 25,7 km/h (4 Bft) 100,00 %
19.09.2022 17:04 15,6 C 15,0 C 11,1 C 76 % 1020,6 hPa 0,0 l/m 0 min 0 min 135 W/m 16,1 km/h (3 Bft) 100,00 %
19.09.2022 17:06 15,6 C 15,0 C 11,1 C 75 % 1020,6 hPa 0,0 l/m 0 min 0 min 134 W/m 22,5 km/h (4 Bft) 100,00 %
19.09.2022 17:08 15,5 C 15,0 C 11,1 C 75 % 1020,6 hPa 0,0 l/m 0 min 0 min 131 W/m 12,9 km/h (3 Bft) 100,00 %
19.09.2022 17:10 15,4 C 15,0 C 11,1 C 74 % 1020,6 hPa 0,0 l/m 0 min 0 min 125 W/m 25,7 km/h (4 Bft) 100,00 %
19.09.2022 17:12 15,3 C 14,4 C 11,1 C 74 % 1020,6 hPa 0,0 l/m 0 min 0 min 119 W/m 25,7 km/h (4 Bft) 97,87 %
19.09.2022 17:14 15,3 C 14,4 C 11,1 C 74 % 1020,6 hPa 0,0 l/m 0 min 0 min 119 W/m 19,3 km/h (3 Bft) 100,00 %
19.09.2022 17:16 15,2 C 14,4 C 11,1 C 74 % 1020,6 hPa 0,0 l/m 0 min 0 min 127 W/m 19,3 km/h (3 Bft) 100,00 %
19.09.2022 17:18 15,2 C 14,4 C 11,1 C 74 % 1020,5 hPa 0,0 l/m 0 min 0 min 123 W/m 25,7 km/h (4 Bft) 100,00 %
19.09.2022 17:20 15,1 C 14,4 C 11,1 C 74 % 1020,5 hPa 0,0 l/m 0 min 0 min 119 W/m 19,3 km/h (3 Bft) 100,00 %
19.09.2022 17:22 15,1 C 14,4 C 11,1 C 74 % 1020,5 hPa 0,0 l/m 0 min 0 min 133 W/m 12,9 km/h (3 Bft) 100,00 %
19.09.2022 17:24 15,1 C 15,0 C 10,6 C 74 % 1020,5 hPa 0,0 l/m 0 min 0 min 154 W/m 16,1 km/h (3 Bft) 100,00 %
19.09.2022 17:26 15,1 C 15,0 C 11,1 C 74 % 1020,5 hPa 0,0 l/m 2 min 0 min 170 W/m 16,1 km/h (3 Bft) 100,00 %
19.09.2022 17:28 15,1 C 15,0 C 11,1 C 75 % 1020,6 hPa 0,0 l/m 2 min 0 min 173 W/m 9,7 km/h (2 Bft) 100,00 %
19.09.2022 17:30 15,1 C 15,6 C 11,1 C 75 % 1020,7 hPa 0,0 l/m 2 min 0 min 183 W/m 12,9 km/h (3 Bft) 100,00 %
19.09.2022 17:32 15,1 C 16,7 C 11,1 C 75 % 1020,6 hPa 0,0 l/m 2 min 0 min 251 W/m 19,3 km/h (3 Bft) 100,00 %
19.09.2022 17:34 15,1 C 16,7 C 11,1 C 75 % 1020,6 hPa 0,0 l/m 2 min 0 min 408 W/m 22,5 km/h (4 Bft) 100,00 %
19.09.2022 17:36 15,2 C 17,8 C 11,1 C 75 % 1020,6 hPa 0,0 l/m 2 min 0 min 397 W/m 22,5 km/h (4 Bft) 100,00 %
19.09.2022 17:38 15,3 C 17,8 C 11,1 C 74 % 1020,6 hPa 0,0 l/m 2 min 0 min 370 W/m 22,5 km/h (4 Bft) 97,14 %
19.09.2022 17:40 15,3 C 17,8 C 11,1 C 74 % 1020,6 hPa 0,0 l/m 2 min 0 min 312 W/m 25,7 km/h (4 Bft) 100,00 %
19.09.2022 17:42 15,4 C 18,3 C 11,1 C 74 % 1020,6 hPa 0,0 l/m 2 min 0 min 351 W/m 22,5 km/h (4 Bft) 100,00 %
19.09.2022 17:44 15,5 C 18,9 C 11,1 C 74 % 1020,6 hPa 0,0 l/m 2 min 0 min 391 W/m 19,3 km/h (3 Bft) 100,00 %
19.09.2022 17:46 15,6 C 18,3 C 11,7 C 74 % 1020,6 hPa 0,0 l/m 2 min 0 min 369 W/m 25,7 km/h (4 Bft) 97,87 %
19.09.2022 17:48 15,7 C 16,7 C 11,1 C 73 % 1020,6 hPa 0,0 l/m 2 min 0 min 228 W/m 25,7 km/h (4 Bft) 97,83 %
19.09.2022 17:50 15,7 C 16,7 C 11,1 C 74 % 1020,6 hPa 0,0 l/m 2 min 0 min 191 W/m 22,5 km/h (4 Bft) 100,00 %
19.09.2022 17:52 15,7 C 16,7 C 11,1 C 74 % 1020,5 hPa 0,0 l/m 2 min 0 min 280 W/m 16,1 km/h (3 Bft) 95,74 %
19.09.2022 17:54 15,7 C 16,1 C 11,1 C 74 % 1020,6 hPa 0,0 l/m 2 min 0 min 289 W/m 22,5 km/h (4 Bft) 97,87 %
19.09.2022 17:56 15,7 C 15,6 C 11,1 C 74 % 1020,6 hPa 0,0 l/m 2 min 0 min 146 W/m 22,5 km/h (4 Bft) 97,87 %
19.09.2022 17:58 15,6 C 16,1 C 11,1 C 75 % 1020,6 hPa 0,0 l/m 2 min 0 min 180 W/m 12,9 km/h (3 Bft) 95,74 %
19.09.2022 18:00 15,6 C 15,6 C 11,1 C 75 % 1020,5 hPa 0,0 l/m 2 min 0 min 152 W/m 16,1 km/h (3 Bft) 97,83 %
19.09.2022 18:02 15,6 C 15,6 C 11,1 C 75 % 1020,6 hPa 0,0 l/m 2 min 0 min 151 W/m 22,5 km/h (4 Bft) 97,87 %
19.09.2022 18:04 15,6 C 15,6 C 11,1 C 76 % 1020,5 hPa 0,0 l/m 2 min 0 min 135 W/m 22,5 km/h (4 Bft) 97,87 %
19.09.2022 18:08 15,6 C 15,0 C 11,1 C 76 % 1020,6 hPa 0,0 l/m 0 min 0 min 113 W/m 41,8 km/h (6 Bft) 98,02 %
19.09.2022 18:10 15,6 C 15,0 C 11,1 C 75 % 1020,6 hPa 0,0 l/m 0 min 0 min 83 W/m 19,3 km/h (3 Bft) 97,87 %
19.09.2022 18:12 15,4 C 14,4 C 11,1 C 75 % 1020,7 hPa 0,0 l/m 0 min 0 min 68 W/m 35,4 km/h (5 Bft) 97,83 %
19.09.2022 18:14 15,3 C 14,4 C 10,6 C 76 % 1020,7 hPa 0,0 l/m 0 min 0 min 56 W/m 22,5 km/h (4 Bft) 97,87 %
19.09.2022 18:16 15,3 C 14,4 C 10,6 C 75 % 1020,8 hPa 0,0 l/m 0 min 2 min 47 W/m 32,2 km/h (5 Bft) 97,87 %
19.09.2022 18:18 15,1 C 13,9 C 10,6 C 76 % 1020,7 hPa 0,0 l/m 0 min 2 min 43 W/m 19,3 km/h (3 Bft) 95,74 %
19.09.2022 18:20 15,0 C 13,9 C 10,0 C 77 % 1020,7 hPa 0,0 l/m 0 min 2 min 43 W/m 19,3 km/h (3 Bft) 97,87 %
19.09.2022 18:22 14,8 C 13,9 C 10,0 C 77 % 1020,7 hPa 0,0 l/m 0 min 0 min 38 W/m 9,7 km/h (2 Bft) 97,87 %
19.09.2022 18:24 14,7 C 13,3 C 10,0 C 78 % 1020,7 hPa 0,0 l/m 0 min 0 min 34 W/m 19,3 km/h (3 Bft) 97,83 %
19.09.2022 18:26 14,6 C 13,3 C 10,0 C 78 % 1020,8 hPa 0,0 l/m 0 min 0 min 42 W/m 29,0 km/h (5 Bft) 97,87 %
19.09.2022 18:28 14,5 C 13,3 C 10,0 C 78 % 1020,7 hPa 0,0 l/m 0 min 0 min 62 W/m 22,5 km/h (4 Bft) 95,74 %
19.09.2022 18:30 14,3 C 13,3 C 9,4 C 78 % 1020,8 hPa 0,0 l/m 0 min 0 min 73 W/m 22,5 km/h (4 Bft) 97,87 %
19.09.2022 18:32 14,3 C 13,3 C 10,0 C 78 % 1020,8 hPa 0,0 l/m 0 min 0 min 77 W/m 16,1 km/h (3 Bft) 97,87 %
19.09.2022 18:34 14,3 C 13,3 C 10,0 C 79 % 1020,8 hPa 0,0 l/m 2 min 0 min 89 W/m 12,9 km/h (3 Bft) 93,62 %
19.09.2022 18:36 14,3 C 13,3 C 10,0 C 79 % 1020,8 hPa 0,0 l/m 2 min 0 min 80 W/m 12,9 km/h (3 Bft) 95,65 %
19.09.2022 18:38 14,2 C 13,3 C 10,0 C 80 % 1020,8 hPa 0,0 l/m 0 min 0 min 71 W/m 16,1 km/h (3 Bft) 95,74 %
19.09.2022 18:40 14,2 C 13,3 C 10,0 C 80 % 1020,9 hPa 0,0 l/m 0 min 0 min 61 W/m 19,3 km/h (3 Bft) 93,62 %
19.09.2022 18:42 14,1 C 13,3 C 10,0 C 80 % 1020,8 hPa 0,0 l/m 0 min 0 min 59 W/m 25,7 km/h (4 Bft) 93,62 %
19.09.2022 18:44 14,1 C 13,3 C 10,0 C 80 % 1020,8 hPa 0,0 l/m 0 min 0 min 60 W/m 16,1 km/h (3 Bft) 95,74 %
19.09.2022 18:46 14,1 C 13,3 C 10,0 C 80 % 1020,9 hPa 0,0 l/m 0 min 0 min 61 W/m 12,9 km/h (3 Bft) 95,74 %
19.09.2022 18:48 14,1 C 13,3 C 10,0 C 80 % 1020,8 hPa 0,0 l/m 0 min 0 min 59 W/m 19,3 km/h (3 Bft) 95,65 %
19.09.2022 18:50 14,0 C 13,3 C 10,0 C 80 % 1020,8 hPa 0,0 l/m 0 min 0 min 54 W/m 16,1 km/h (3 Bft) 95,74 %
19.09.2022 18:52 14,0 C 13,3 C 10,0 C 80 % 1020,9 hPa 0,0 l/m 0 min 0 min 52 W/m 19,3 km/h (3 Bft) 93,62 %
19.09.2022 18:54 13,9 C 13,3 C 9,4 C 79 % 1020,9 hPa 0,0 l/m 0 min 0 min 51 W/m 22,5 km/h (4 Bft) 95,74 %
19.09.2022 18:56 13,9 C 13,3 C 10,0 C 80 % 1020,9 hPa 0,0 l/m 0 min 0 min 51 W/m 12,9 km/h (3 Bft) 95,74 %
19.09.2022 18:58 13,9 C 13,3 C 9,4 C 80 % 1021,0 hPa 0,0 l/m 0 min 0 min 46 W/m 9,7 km/h (2 Bft) 93,62 %
19.09.2022 19:00 13,9 C 13,3 C 9,4 C 80 % 1020,9 hPa 0,0 l/m 0 min 0 min 39 W/m 16,1 km/h (3 Bft) 95,65 %
19.09.2022 19:02 13,9 C 13,3 C 9,4 C 80 % 1020,9 hPa 0,0 l/m 0 min 0 min 31 W/m 19,3 km/h (3 Bft) 95,74 %
19.09.2022 19:04 13,9 C 13,3 C 9,4 C 80 % 1021,0 hPa 0,0 l/m 0 min 0 min 27 W/m 19,3 km/h (3 Bft) 95,74 %
19.09.2022 19:06 13,8 C 13,3 C 9,4 C 80 % 1021,0 hPa 0,0 l/m 0 min 0 min 28 W/m 25,7 km/h (4 Bft) 95,74 %
19.09.2022 19:08 13,8 C 13,3 C 9,4 C 80 % 1021,0 hPa 0,0 l/m 0 min 0 min 30 W/m 16,1 km/h (3 Bft) 95,74 %
19.09.2022 19:10 13,8 C 12,8 C 9,4 C 80 % 1021,0 hPa 0,0 l/m 0 min 0 min 29 W/m 19,3 km/h (3 Bft) 93,62 %
19.09.2022 19:12 13,7 C 12,8 C 9,4 C 80 % 1021,1 hPa 0,0 l/m 0 min 0 min 26 W/m 16,1 km/h (3 Bft) 95,65 %
19.09.2022 19:14 13,7 C 12,8 C 9,4 C 80 % 1021,1 hPa 0,0 l/m 0 min 0 min 25 W/m 32,2 km/h (5 Bft) 93,62 %
19.09.2022 19:16 13,7 C 12,8 C 9,4 C 80 % 1021,1 hPa 0,0 l/m 0 min 0 min 21 W/m 16,1 km/h (3 Bft) 95,74 %
19.09.2022 19:18 13,7 C 12,8 C 9,4 C 80 % 1021,1 hPa 0,0 l/m 0 min 0 min 18 W/m 12,9 km/h (3 Bft) 97,87 %
19.09.2022 19:20 13,7 C 12,8 C 9,4 C 80 % 1021,2 hPa 0,0 l/m 0 min 0 min 15 W/m 16,1 km/h (3 Bft) 100,00 %
19.09.2022 19:22 13,6 C 12,8 C 9,4 C 80 % 1021,2 hPa 0,0 l/m 0 min 0 min 13 W/m 12,9 km/h (3 Bft) 100,00 %
19.09.2022 19:24 13,6 C 12,8 C 9,4 C 81 % 1021,2 hPa 0,0 l/m 0 min 0 min 12 W/m 22,5 km/h (4 Bft) 97,83 %
19.09.2022 19:26 13,6 C 12,8 C 9,4 C 81 % 1021,2 hPa 0,0 l/m 0 min 0 min 9 W/m 29,0 km/h (5 Bft) 95,74 %
19.09.2022 19:28 13,6 C 12,8 C 9,4 C 81 % 1021,3 hPa 0,0 l/m 0 min 0 min 7 W/m 16,1 km/h (3 Bft) 100,00 %
19.09.2022 19:30 13,6 C 12,8 C 9,4 C 81 % 1021,3 hPa 0,0 l/m 0 min 0 min 5 W/m 22,5 km/h (4 Bft) 100,00 %
19.09.2022 19:32 13,6 C 12,8 C 9,4 C 82 % 1021,3 hPa 0,0 l/m 0 min 0 min 5 W/m 22,5 km/h (4 Bft) 97,87 %
19.09.2022 19:34 13,5 C 12,8 C 9,4 C 82 % 1021,4 hPa 0,0 l/m 0 min 0 min 0 W/m 16,1 km/h (3 Bft) 100,00 %
19.09.2022 19:36 13,5 C 12,8 C 9,4 C 82 % 1021,3 hPa 0,0 l/m 0 min 0 min 0 W/m 16,1 km/h (3 Bft) 100,00 %
19.09.2022 19:38 13,5 C 12,8 C 9,4 C 82 % 1021,3 hPa 0,0 l/m 0 min 0 min 0 W/m 25,7 km/h (4 Bft) 100,00 %
19.09.2022 19:40 13,5 C 12,8 C 9,4 C 83 % 1021,3 hPa 0,0 l/m 0 min 0 min 0 W/m 16,1 km/h (3 Bft) 97,87 %
19.09.2022 19:42 13,4 C 12,8 C 9,4 C 83 % 1021,4 hPa 0,0 l/m 0 min 0 min 0 W/m 19,3 km/h (3 Bft) 85,11 %
19.09.2022 19:44 13,4 C 12,8 C 8,9 C 83 % 1021,4 hPa 0,0 l/m 0 min 0 min 0 W/m 22,5 km/h (4 Bft) 71,11 %
19.09.2022 19:46 13,4 C 12,8 C 8,9 C 83 % 1021,3 hPa 0,0 l/m 0 min 0 min 0 W/m 19,3 km/h (3 Bft) 100,00 %
19.09.2022 19:48 13,3 C 12,8 C 8,9 C 83 % 1021,4 hPa 0,0 l/m 0 min 0 min 0 W/m 25,7 km/h (4 Bft) 100,00 %
19.09.2022 19:50 13,3 C 12,8 C 8,9 C 83 % 1021,4 hPa 0,0 l/m 0 min 0 min 0 W/m 12,9 km/h (3 Bft) 95,74 %
19.09.2022 19:52 13,3 C 12,2 C 8,9 C 83 % 1021,4 hPa 0,0 l/m 0 min 0 min 0 W/m 12,9 km/h (3 Bft) 100,00 %
19.09.2022 19:54 13,3 C 12,2 C 8,9 C 82 % 1021,4 hPa 0,0 l/m 0 min 0 min 0 W/m 9,7 km/h (2 Bft) 97,87 %
19.09.2022 19:56 13,2 C 12,2 C 8,9 C 82 % 1021,4 hPa 0,0 l/m 0 min 0 min 0 W/m 16,1 km/h (3 Bft) 97,87 %
19.09.2022 19:58 13,2 C 12,2 C 8,9 C 82 % 1021,4 hPa 0,0 l/m 0 min 0 min 0 W/m 16,1 km/h (3 Bft) 97,87 %
19.09.2022 20:00 13,2 C 12,2 C 8,9 C 82 % 1021,4 hPa 0,0 l/m 0 min 0 min 0 W/m 16,1 km/h (3 Bft) 95,65 %
19.09.2022 20:02 13,2 C 12,2 C 8,9 C 82 % 1021,5 hPa 0,0 l/m 0 min 0 min 0 W/m 12,9 km/h (3 Bft) 97,87 %
19.09.2022 20:04 13,2 C 12,2 C 8,9 C 83 % 1021,5 hPa 0,0 l/m 0 min 0 min 0 W/m 12,9 km/h (3 Bft) 97,87 %
19.09.2022 20:06 13,2 C 12,2 C 8,9 C 83 % 1021,5 hPa 0,0 l/m 0 min 0 min 0 W/m 6,4 km/h (2 Bft) 95,74 %
19.09.2022 20:08 13,2 C 12,2 C 8,9 C 83 % 1021,5 hPa 0,0 l/m 0 min 0 min 0 W/m 6,4 km/h (2 Bft) 97,92 %
19.09.2022 20:10 13,2 C 12,2 C 8,9 C 84 % 1021,5 hPa 0,0 l/m 0 min 0 min 0 W/m 9,7 km/h (2 Bft) 97,87 %
19.09.2022 20:12 13,2 C 12,2 C 8,9 C 84 % 1021,5 hPa 0,0 l/m 0 min 0 min 0 W/m 6,4 km/h (2 Bft) 97,83 %
19.09.2022 20:14 13,2 C 12,2 C 8,9 C 85 % 1021,5 hPa 0,0 l/m 0 min 0 min 0 W/m 22,5 km/h (4 Bft) 95,74 %
19.09.2022 20:16 13,2 C 12,2 C 8,9 C 85 % 1021,5 hPa 0,0 l/m 0 min 0 min 0 W/m 12,9 km/h (3 Bft) 97,87 %
19.09.2022 20:18 13,2 C 12,2 C 8,9 C 85 % 1021,6 hPa 0,0 l/m 0 min 0 min 0 W/m 9,7 km/h (2 Bft) 97,87 %
19.09.2022 20:20 13,1 C 12,2 C 8,9 C 85 % 1021,6 hPa 0,0 l/m 0 min 0 min 0 W/m 12,9 km/h (3 Bft) 97,87 %
19.09.2022 20:22 13,1 C 12,2 C 8,9 C 85 % 1021,6 hPa 0,0 l/m 0 min 0 min 0 W/m 12,9 km/h (3 Bft) 97,87 %
19.09.2022 20:24 13,1 C 12,2 C 8,9 C 85 % 1021,6 hPa 0,0 l/m 0 min 0 min 0 W/m 6,4 km/h (2 Bft) 97,83 %
19.09.2022 20:26 13,1 C 12,2 C 8,9 C 86 % 1021,6 hPa 0,0 l/m 0 min 0 min 0 W/m 9,7 km/h (2 Bft) 100,00 %
19.09.2022 20:28 13,1 C 12,2 C 8,9 C 86 % 1021,6 hPa 0,0 l/m 0 min 0 min 0 W/m 9,7 km/h (2 Bft) 100,00 %
19.09.2022 20:30 13,2 C 12,8 C 8,9 C 86 % 1021,6 hPa 0,0 l/m 0 min 2 min 0 W/m 12,9 km/h (3 Bft) 97,87 %
19.09.2022 20:32 13,2 C 12,8 C 8,9 C 86 % 1021,7 hPa 0,0 l/m 0 min 0 min 0 W/m 6,4 km/h (2 Bft) 100,00 %
19.09.2022 20:34 13,2 C 12,8 C 8,9 C 86 % 1021,6 hPa 0,0 l/m 0 min 0 min 0 W/m 3,2 km/h (1 Bft) 100,00 %
19.09.2022 20:36 13,2 C 12,8 C 8,9 C 86 % 1021,6 hPa 0,0 l/m 0 min 0 min 0 W/m 9,7 km/h (2 Bft) 100,00 %
19.09.2022 20:38 13,2 C 12,2 C 8,9 C 86 % 1021,6 hPa 0,0 l/m 0 min 0 min 0 W/m 6,4 km/h (2 Bft) 97,87 %
19.09.2022 20:40 13,2 C 12,2 C 8,9 C 86 % 1021,7 hPa 0,0 l/m 0 min 0 min 0 W/m 6,4 km/h (2 Bft) 100,00 %
19.09.2022 20:42 13,2 C 12,2 C 8,9 C 85 % 1021,8 hPa 0,0 l/m 0 min 0 min 0 W/m 9,7 km/h (2 Bft) 97,87 %
19.09.2022 20:44 13,1 C 12,2 C 8,9 C 85 % 1021,7 hPa 0,0 l/m 0 min 0 min 0 W/m 6,4 km/h (2 Bft) 100,00 %
19.09.2022 20:46 13,1 C 12,2 C 8,9 C 85 % 1021,7 hPa 0,0 l/m 0 min 0 min 0 W/m 6,4 km/h (2 Bft) 100,00 %
19.09.2022 20:48 13,1 C 12,2 C 8,9 C 85 % 1021,8 hPa 0,0 l/m 0 min 0 min 0 W/m 9,7 km/h (2 Bft) 100,00 %
19.09.2022 20:50 13,1 C 12,2 C 8,9 C 85 % 1021,8 hPa 0,0 l/m 0 min 0 min 0 W/m 6,4 km/h (2 Bft) 100,00 %
19.09.2022 20:52 13,1 C 12,2 C 8,9 C 85 % 1021,8 hPa 0,0 l/m 0 min 0 min 0 W/m 9,7 km/h (2 Bft) 100,00 %
19.09.2022 20:54 13,1 C 12,2 C 8,9 C 85 % 1021,8 hPa 0,0 l/m 0 min 0 min 0 W/m 6,4 km/h (2 Bft) 100,00 %
19.09.2022 20:56 13,1 C 12,2 C 8,9 C 85 % 1021,8 hPa 0,0 l/m 0 min 0 min 0 W/m 9,7 km/h (2 Bft) 100,00 %
19.09.2022 20:58 13,1 C 12,2 C 8,9 C 85 % 1021,9 hPa 0,0 l/m 0 min 0 min 0 W/m 3,2 km/h (1 Bft) 100,00 %
19.09.2022 21:00 13,0 C 12,2 C 8,9 C 85 % 1021,9 hPa 0,0 l/m 0 min 0 min 0 W/m 12,9 km/h (3 Bft) 100,00 %
19.09.2022 21:02 13,1 C 12,2 C 8,9 C 85 % 1021,9 hPa 0,0 l/m 0 min 0 min 0 W/m 6,4 km/h (2 Bft) 100,00 %
19.09.2022 21:04 13,0 C 12,2 C 8,9 C 85 % 1021,9 hPa 0,0 l/m 0 min 0 min 0 W/m 6,4 km/h (2 Bft) 97,87 %
19.09.2022 21:06 13,0 C 12,2 C 8,9 C 85 % 1021,9 hPa 0,0 l/m 0 min 0 min 0 W/m 6,4 km/h (2 Bft) 97,87 %
19.09.2022 21:08 13,0 C 12,2 C 8,9 C 84 % 1022,0 hPa 0,0 l/m 0 min 0 min 0 W/m 3,2 km/h (1 Bft) 100,00 %
19.09.2022 21:10 13,0 C 12,2 C 8,9 C 84 % 1022,0 hPa 0,0 l/m 0 min 0 min 0 W/m 9,7 km/h (2 Bft) 100,00 %
19.09.2022 21:12 13,0 C 12,2 C 8,9 C 84 % 1022,0 hPa 0,0 l/m 0 min 0 min 0 W/m 9,7 km/h (2 Bft) 100,00 %
19.09.2022 21:14 12,9 C 12,2 C 8,9 C 84 % 1022,0 hPa 0,0 l/m 0 min 0 min 0 W/m 12,9 km/h (3 Bft) 97,87 %
19.09.2022 21:16 12,9 C 12,2 C 8,9 C 84 % 1022,0 hPa 0,0 l/m 0 min 0 min 0 W/m 6,4 km/h (2 Bft) 97,87 %
19.09.2022 21:18 12,9 C 12,2 C 8,9 C 84 % 1022,0 hPa 0,0 l/m 0 min 0 min 0 W/m 3,2 km/h (1 Bft) 100,00 %
19.09.2022 21:20 12,9 C 12,2 C 8,9 C 84 % 1022,0 hPa 0,0 l/m 0 min 0 min 0 W/m 6,4 km/h (2 Bft) 100,00 %
19.09.2022 21:22 12,9 C 12,2 C 8,9 C 84 % 1022,0 hPa 0,0 l/m 0 min 0 min 0 W/m 9,7 km/h (2 Bft) 97,87 %
19.09.2022 21:24 12,9 C 12,2 C 8,9 C 84 % 1022,0 hPa 0,0 l/m 0 min 0 min 0 W/m 6,4 km/h (2 Bft) 97,83 %
19.09.2022 21:26 12,9 C 12,2 C 8,9 C 84 % 1022,0 hPa 0,0 l/m 0 min 0 min 0 W/m 6,4 km/h (2 Bft) 97,87 %
19.09.2022 21:28 12,9 C 12,2 C 8,9 C 84 % 1022,1 hPa 0,0 l/m 0 min 0 min 0 W/m 6,4 km/h (2 Bft) 91,49 %
19.09.2022 21:30 12,9 C 12,2 C 8,3 C 84 % 1022,1 hPa 0,0 l/m 0 min 0 min 0 W/m 6,4 km/h (2 Bft) 95,83 %
19.09.2022 21:32 12,8 C 12,2 C 8,3 C 84 % 1022,0 hPa 0,0 l/m 0 min 0 min 0 W/m 9,7 km/h (2 Bft) 93,75 %
19.09.2022 21:34 12,8 C 12,2 C 8,3 C 84 % 1022,1 hPa 0,0 l/m 0 min 0 min 0 W/m 9,7 km/h (2 Bft) 95,74 %
19.09.2022 21:36 12,8 C 11,7 C 8,3 C 84 % 1022,0 hPa 0,0 l/m 0 min 0 min 0 W/m 9,7 km/h (2 Bft) 93,48 %
19.09.2022 21:38 12,8 C 11,7 C 8,3 C 84 % 1022,1 hPa 0,0 l/m 0 min 0 min 0 W/m 9,7 km/h (2 Bft) 95,74 %
19.09.2022 21:40 12,8 C 11,7 C 8,3 C 85 % 1022,0 hPa 0,0 l/m 0 min 0 min 0 W/m 16,1 km/h (3 Bft) 95,74 %
19.09.2022 21:42 12,7 C 11,7 C 8,3 C 85 % 1022,0 hPa 0,0 l/m 0 min 0 min 0 W/m 9,7 km/h (2 Bft) 89,36 %
19.09.2022 21:44 12,7 C 11,7 C 8,3 C 85 % 1022,1 hPa 0,0 l/m 0 min 0 min 0 W/m 3,2 km/h (1 Bft) 91,49 %
19.09.2022 21:46 12,7 C 11,7 C 8,3 C 85 % 1022,0 hPa 0,0 l/m 0 min 0 min 0 W/m 6,4 km/h (2 Bft) 91,30 %
19.09.2022 21:48 12,7 C 11,7 C 8,3 C 85 % 1022,1 hPa 0,0 l/m 0 min 0 min 0 W/m 6,4 km/h (2 Bft) 93,62 %
19.09.2022 21:50 12,7 C 11,7 C 8,3 C 85 % 1022,1 hPa 0,0 l/m 0 min 0 min 0 W/m 6,4 km/h (2 Bft) 93,62 %
19.09.2022 21:52 12,7 C 11,7 C 8,3 C 85 % 1022,1 hPa 0,0 l/m 0 min 0 min 0 W/m 3,2 km/h (1 Bft) 95,74 %
19.09.2022 21:54 12,6 C 11,7 C 8,3 C 85 % 1022,1 hPa 0,0 l/m 0 min 0 min 0 W/m 6,4 km/h (2 Bft) 93,62 %
19.09.2022 21:56 12,6 C 11,7 C 8,3 C 85 % 1022,0 hPa 0,0 l/m 0 min 0 min 0 W/m 3,2 km/h (1 Bft) 91,49 %
19.09.2022 21:58 12,6 C 11,7 C 8,3 C 85 % 1022,0 hPa 0,0 l/m 0 min 0 min 0 W/m 3,2 km/h (1 Bft) 93,48 %
19.09.2022 22:00 12,6 C 11,7 C 8,3 C 85 % 1022,0 hPa 0,0 l/m 0 min 0 min 0 W/m 6,4 km/h (2 Bft) 93,62 %
19.09.2022 22:02 12,6 C 11,7 C 8,3 C 85 % 1022,0 hPa 0,0 l/m 0 min 0 min 0 W/m 3,2 km/h (1 Bft) 91,49 %
19.09.2022 22:04 12,6 C 11,7 C 8,3 C 85 % 1022,0 hPa 0,0 l/m 0 min 0 min 0 W/m 3,2 km/h (1 Bft) 93,62 %
19.09.2022 22:06 12,6 C 11,7 C 8,3 C 86 % 1022,1 hPa 0,0 l/m 0 min 0 min 0 W/m 6,4 km/h (2 Bft) 93,62 %
19.09.2022 22:08 12,6 C 11,7 C 8,3 C 86 % 1022,1 hPa 0,0 l/m 0 min 0 min 0 W/m 3,2 km/h (1 Bft) 95,74 %
19.09.2022 22:10 12,6 C 11,7 C 8,3 C 86 % 1022,1 hPa 0,0 l/m 0 min 0 min 0 W/m 6,4 km/h (2 Bft) 95,74 %
19.09.2022 22:12 12,6 C 11,7 C 8,3 C 86 % 1022,1 hPa 0,0 l/m 0 min 0 min 0 W/m 3,2 km/h (1 Bft) 97,83 %
19.09.2022 22:14 12,6 C 11,7 C 8,3 C 86 % 1022,2 hPa 0,0 l/m 0 min 0 min 0 W/m 3,2 km/h (1 Bft) 97,87 %
19.09.2022 22:16 12,5 C 11,7 C 8,3 C 86 % 1022,2 hPa 0,0 l/m 0 min 0 min 0 W/m 3,2 km/h (1 Bft) 97,92 %
19.09.2022 22:18 12,5 C 11,7 C 8,3 C 86 % 1022,2 hPa 0,0 l/m 0 min 0 min 0 W/m 3,2 km/h (1 Bft) 54,35 %
19.09.2022 22:20 12,5 C 11,7 C 8,3 C 86 % 1022,2 hPa 0,0 l/m 0 min 0 min 0 W/m 6,4 km/h (2 Bft) 97,56 %
19.09.2022 22:22 12,5 C 11,7 C 8,3 C 86 % 1022,2 hPa 0,0 l/m 0 min 0 min 0 W/m 6,4 km/h (2 Bft) 100,00 %
19.09.2022 22:24 12,5 C 11,7 C 8,3 C 86 % 1022,2 hPa 0,0 l/m 0 min 0 min 0 W/m 3,2 km/h (1 Bft) 97,87 %
19.09.2022 22:26 12,5 C 11,7 C 8,3 C 87 % 1022,2 hPa 0,0 l/m 0 min 0 min 0 W/m 0,0 km/h (0 Bft) 100,00 %
19.09.2022 22:28 12,5 C 11,7 C 8,3 C 87 % 1022,2 hPa 0,0 l/m 0 min 0 min 0 W/m 3,2 km/h (1 Bft) 100,00 %
19.09.2022 22:30 12,5 C 11,7 C 8,3 C 87 % 1022,2 hPa 0,0 l/m 0 min 0 min 0 W/m 3,2 km/h (1 Bft) 100,00 %
19.09.2022 22:32 12,5 C 11,7 C 8,3 C 87 % 1022,3 hPa 0,0 l/m 0 min 0 min 0 W/m 3,2 km/h (1 Bft) 100,00 %
19.09.2022 22:34 12,5 C 11,7 C 8,3 C 87 % 1022,3 hPa 0,0 l/m 0 min 0 min 0 W/m 3,2 km/h (1 Bft) 97,83 %
19.09.2022 22:36 12,5 C 11,7 C 8,3 C 87 % 1022,3 hPa 0,0 l/m 0 min 0 min 0 W/m 3,2 km/h (1 Bft) 100,00 %
19.09.2022 22:38 12,5 C 11,7 C 8,3 C 87 % 1022,3 hPa 0,0 l/m 0 min 0 min 0 W/m 3,2 km/h (1 Bft) 100,00 %
19.09.2022 22:40 12,5 C 11,7 C 8,3 C 87 % 1022,4 hPa 0,0 l/m 0 min 0 min 0 W/m 3,2 km/h (1 Bft) 100,00 %
19.09.2022 22:42 12,4 C 11,7 C 8,3 C 87 % 1022,4 hPa 0,0 l/m 0 min 0 min 0 W/m 3,2 km/h (1 Bft) 100,00 %
19.09.2022 22:44 12,4 C 11,7 C 8,3 C 87 % 1022,4 hPa 0,0 l/m 0 min 0 min 0 W/m 3,2 km/h (1 Bft) 100,00 %
19.09.2022 22:46 12,4 C 11,7 C 8,3 C 87 % 1022,4 hPa 0,0 l/m 0 min 0 min 0 W/m 3,2 km/h (1 Bft) 100,00 %
19.09.2022 22:48 12,4 C 11,7 C 8,3 C 87 % 1022,4 hPa 0,0 l/m 0 min 0 min 0 W/m 6,4 km/h (2 Bft) 100,00 %
19.09.2022 22:50 12,4 C 11,7 C 8,3 C 87 % 1022,4 hPa 0,0 l/m 0 min 0 min 0 W/m 6,4 km/h (2 Bft) 100,00 %
19.09.2022 22:52 12,4 C 11,7 C 8,3 C 87 % 1022,5 hPa 0,0 l/m 0 min 0 min 0 W/m 6,4 km/h (2 Bft) 97,87 %
19.09.2022 22:54 12,4 C 11,7 C 8,3 C 87 % 1022,4 hPa 0,0 l/m 0 min 0 min 0 W/m 3,2 km/h (1 Bft) 100,00 %
19.09.2022 22:56 12,4 C 11,7 C 8,3 C 88 % 1022,4 hPa 0,0 l/m 0 min 0 min 0 W/m 3,2 km/h (1 Bft) 100,00 %
19.09.2022 22:58 12,4 C 11,7 C 8,3 C 88 % 1022,5 hPa 0,0 l/m 0 min 0 min 0 W/m 3,2 km/h (1 Bft) 100,00 %
19.09.2022 23:00 12,4 C 11,7 C 8,3 C 88 % 1022,4 hPa 0,0 l/m 0 min 0 min 0 W/m 6,4 km/h (2 Bft) 100,00 %
19.09.2022 23:02 12,4 C 11,7 C 8,3 C 88 % 1022,5 hPa 0,0 l/m 0 min 0 min 0 W/m 3,2 km/h (1 Bft) 100,00 %
19.09.2022 23:04 12,4 C 11,7 C 8,3 C 88 % 1022,5 hPa 0,0 l/m 0 min 0 min 0 W/m 3,2 km/h (1 Bft) 100,00 %
19.09.2022 23:06 12,4 C 11,7 C 8,3 C 88 % 1022,4 hPa 0,0 l/m 0 min 0 min 0 W/m 0,0 km/h (0 Bft) 97,87 %
19.09.2022 23:08 12,4 C 11,7 C 8,3 C 88 % 1022,5 hPa 0,0 l/m 0 min 0 min 0 W/m 3,2 km/h (1 Bft) 100,00 %
19.09.2022 23:10 12,4 C 11,7 C 8,3 C 88 % 1022,4 hPa 0,0 l/m 0 min 0 min 0 W/m 0,0 km/h (0 Bft) 100,00 %
19.09.2022 23:12 12,4 C 11,7 C 8,3 C 88 % 1022,5 hPa 0,0 l/m 0 min 0 min 0 W/m 6,4 km/h (2 Bft) 100,00 %
19.09.2022 23:14 12,4 C 11,7 C 8,3 C 88 % 1022,4 hPa 0,0 l/m 0 min 0 min 0 W/m 6,4 km/h (2 Bft) 100,00 %
19.09.2022 23:16 12,4 C 11,7 C 8,3 C 88 % 1022,4 hPa 0,0 l/m 0 min 0 min 0 W/m 3,2 km/h (1 Bft) 100,00 %
19.09.2022 23:18 12,4 C 11,7 C 7,8 C 88 % 1022,5 hPa 0,0 l/m 0 min 0 min 0 W/m 0,0 km/h (0 Bft) 100,00 %
19.09.2022 23:20 12,3 C 11,7 C 7,8 C 88 % 1022,5 hPa 0,0 l/m 0 min 0 min 0 W/m 3,2 km/h (1 Bft) 97,87 %
19.09.2022 23:22 12,3 C 11,1 C 7,8 C 88 % 1022,5 hPa 0,0 l/m 0 min 0 min 0 W/m 3,2 km/h (1 Bft) 100,00 %
19.09.2022 23:24 12,3 C 11,1 C 7,8 C 88 % 1022,5 hPa 0,0 l/m 0 min 0 min 0 W/m 0,0 km/h (0 Bft) 100,00 %
19.09.2022 23:26 12,3 C 11,1 C 7,8 C 89 % 1022,5 hPa 0,0 l/m 0 min 0 min 0 W/m 0,0 km/h (0 Bft) 95,74 %
19.09.2022 23:28 12,3 C 11,1 C 7,8 C 89 % 1022,5 hPa 0,0 l/m 0 min 0 min 0 W/m 0,0 km/h (0 Bft) 97,87 %
19.09.2022 23:30 12,3 C 11,1 C 7,8 C 89 % 1022,5 hPa 0,0 l/m 0 min 0 min 0 W/m 0,0 km/h (0 Bft) 97,87 %
19.09.2022 23:32 12,3 C 11,1 C 7,8 C 89 % 1022,5 hPa 0,0 l/m 0 min 0 min 0 W/m 0,0 km/h (0 Bft) 97,87 %
19.09.2022 23:34 12,3 C 11,1 C 7,8 C 89 % 1022,5 hPa 0,0 l/m 0 min 0 min 0 W/m 0,0 km/h (0 Bft) 97,83 %
19.09.2022 23:36 12,3 C 11,1 C 7,8 C 89 % 1022,5 hPa 0,0 l/m 0 min 0 min 0 W/m 0,0 km/h (0 Bft) 97,87 %
19.09.2022 23:38 12,2 C 11,1 C 7,8 C 89 % 1022,5 hPa 0,0 l/m 0 min 0 min 0 W/m 0,0 km/h (0 Bft) 95,74 %
19.09.2022 23:40 12,2 C 11,1 C 7,8 C 89 % 1022,4 hPa 0,0 l/m 0 min 0 min 0 W/m 0,0 km/h (0 Bft) 97,87 %
19.09.2022 23:42 12,2 C 11,1 C 7,8 C 89 % 1022,4 hPa 0,0 l/m 0 min 0 min 0 W/m 0,0 km/h (0 Bft) 95,74 %
19.09.2022 23:44 12,2 C 11,1 C 7,8 C 89 % 1022,4 hPa 0,0 l/m 0 min 0 min 0 W/m 0,0 km/h (0 Bft) 97,87 %
19.09.2022 23:46 12,2 C 11,1 C 7,8 C 89 % 1022,5 hPa 0,0 l/m 0 min 0 min 0 W/m 3,2 km/h (1 Bft) 97,83 %
19.09.2022 23:48 12,1 C 10,6 C 7,8 C 89 % 1022,5 hPa 0,0 l/m 0 min 0 min 0 W/m 0,0 km/h (0 Bft) 95,74 %
19.09.2022 23:50 12,1 C 10,6 C 7,2 C 89 % 1022,5 hPa 0,0 l/m 0 min 0 min 0 W/m 0,0 km/h (0 Bft) 95,74 %
19.09.2022 23:52 12,1 C 10,6 C 7,2 C 90 % 1022,5 hPa 0,0 l/m 0 min 0 min 0 W/m 0,0 km/h (0 Bft) 97,87 %
19.09.2022 23:54 12,1 C 10,6 C 7,2 C 90 % 1022,6 hPa 0,0 l/m 0 min 0 min 0 W/m 3,2 km/h (1 Bft) 97,87 %
19.09.2022 23:56 12,1 C 11,1 C 7,2 C 90 % 1022,5 hPa 0,0 l/m 0 min 0 min 0 W/m 0,0 km/h (0 Bft) 97,87 %
19.09.2022 23:58 12,0 C 11,1 C 7,2 C 90 % 1022,6 hPa 0,0 l/m 0 min 0 min 0 W/m 0,0 km/h (0 Bft) 97,83 %
_ Min-Zeit 05:52 01:28 01:02 13:46 00:00 - - - - 03:22 00:02
Minimum _ 8,3 C 7,8 C 5,0 C 73 % 1016,8 hPa - - - - 0,0 km/h (0 Bft) 7,14 %
_ Max-Zeit 13:42 12:10 11:56 00:00 23:54 13:50 12:08 12:36 12:10 18:08 00:08
Maximum _ 16,5 C 21,1 C 15,0 C 97 % 1022,6 hPa 0,6 l/m 4 min 2 min 800 W/m 41,8 km/h
W-NW (6 Bft)
100,00 %
Durchschnitt _ 11,8 C 11,5 C 8,1 C 89 % 1019,9 hPa #2,6 l/m #3:08 h #46 min. 191 W/m 10,4 km/h (2 Bft) 97,27 %
© 2022 W. Hausmann